<?xml version="1.0" encoding="utf-8"?>
<gpx xmlns:xsi="http://www.w3.org/2001/XMLSchema-instance" xmlns:xsd="http://www.w3.org/2001/XMLSchema" version="1.1" creator="Shapelink.com" xmlns="http://www.topografix.com/GPX/1/1" xmlns:gpxtpx="http://www.garmin.com/xmlschemas/TrackPointExtension/v1">
  <metadata>
    <name>Gåing 6.54 km, 2013-10-13</name>
    <desc></desc>
    <author><name>Alexander Engvall</name></author> 
    <time>2013-10-13T11:56:19Z</time>
  </metadata>
  <trk>
    <name>Gåing 6.54 km, 2013-10-13</name>
    <trkseg>
      <trkpt lat="59.5027392" lon="17.8106994">
        <ele>18.2</ele>
        <time>2013-10-13T11:56:19Z</time>
      </trkpt>
      <trkpt lat="59.502755" lon="17.8104962">
        <ele>18.4</ele>
        <time>2013-10-13T11:56:25Z</time>
      </trkpt>
      <trkpt lat="59.5028041" lon="17.810244">
        <ele>18.6</ele>
        <time>2013-10-13T11:56:35Z</time>
      </trkpt>
      <trkpt lat="59.5028004" lon="17.8100636">
        <ele>18.8</ele>
        <time>2013-10-13T11:56:42Z</time>
      </trkpt>
      <trkpt lat="59.5027934" lon="17.8100528">
        <ele>19</ele>
        <time>2013-10-13T11:56:43Z</time>
      </trkpt>
      <trkpt lat="59.502757" lon="17.810021">
        <ele>19.6</ele>
        <time>2013-10-13T11:56:47Z</time>
      </trkpt>
      <trkpt lat="59.5027211" lon="17.8099238">
        <ele>22</ele>
        <time>2013-10-13T11:56:53Z</time>
      </trkpt>
      <trkpt lat="59.5026777" lon="17.8098386">
        <ele>22.8</ele>
        <time>2013-10-13T11:56:56Z</time>
      </trkpt>
      <trkpt lat="59.5026462" lon="17.8097261">
        <ele>23.6</ele>
        <time>2013-10-13T11:57:00Z</time>
      </trkpt>
      <trkpt lat="59.5026454" lon="17.8095456">
        <ele>24.4</ele>
        <time>2013-10-13T11:57:06Z</time>
      </trkpt>
      <trkpt lat="59.5026329" lon="17.8094241">
        <ele>24.6</ele>
        <time>2013-10-13T11:57:10Z</time>
      </trkpt>
      <trkpt lat="59.5026109" lon="17.8093833">
        <ele>24.4</ele>
        <time>2013-10-13T11:57:11Z</time>
      </trkpt>
      <trkpt lat="59.5025384" lon="17.80928">
        <ele>24.2</ele>
        <time>2013-10-13T11:57:15Z</time>
      </trkpt>
      <trkpt lat="59.502521" lon="17.8092371">
        <ele>24</ele>
        <time>2013-10-13T11:57:16Z</time>
      </trkpt>
      <trkpt lat="59.5024808" lon="17.8090689">
        <ele>23.6</ele>
        <time>2013-10-13T11:57:22Z</time>
      </trkpt>
      <trkpt lat="59.5024723" lon="17.8090162">
        <ele>23.4</ele>
        <time>2013-10-13T11:57:24Z</time>
      </trkpt>
      <trkpt lat="59.5024675" lon="17.8089747">
        <ele>23.2</ele>
        <time>2013-10-13T11:57:26Z</time>
      </trkpt>
      <trkpt lat="59.5024616" lon="17.808937">
        <ele>23.2</ele>
        <time>2013-10-13T11:57:27Z</time>
      </trkpt>
      <trkpt lat="59.5024204" lon="17.8088635">
        <ele>23</ele>
        <time>2013-10-13T11:57:30Z</time>
      </trkpt>
      <trkpt lat="59.5024223" lon="17.8087604">
        <ele>22.6</ele>
        <time>2013-10-13T11:57:34Z</time>
      </trkpt>
      <trkpt lat="59.5023904" lon="17.8086851">
        <ele>22.4</ele>
        <time>2013-10-13T11:57:36Z</time>
      </trkpt>
      <trkpt lat="59.5023935" lon="17.8085821">
        <ele>22.2</ele>
        <time>2013-10-13T11:57:39Z</time>
      </trkpt>
      <trkpt lat="59.5023964" lon="17.8084794">
        <ele>21.8</ele>
        <time>2013-10-13T11:57:42Z</time>
      </trkpt>
      <trkpt lat="59.5023911" lon="17.8083952">
        <ele>21.6</ele>
        <time>2013-10-13T11:57:45Z</time>
      </trkpt>
      <trkpt lat="59.5023974" lon="17.8082463">
        <ele>21.2</ele>
        <time>2013-10-13T11:57:49Z</time>
      </trkpt>
      <trkpt lat="59.5023995" lon="17.8082155">
        <ele>21.2</ele>
        <time>2013-10-13T11:57:50Z</time>
      </trkpt>
      <trkpt lat="59.5024236" lon="17.8079851">
        <ele>20.6</ele>
        <time>2013-10-13T11:57:56Z</time>
      </trkpt>
      <trkpt lat="59.5024757" lon="17.8077487">
        <ele>19.8</ele>
        <time>2013-10-13T11:58:04Z</time>
      </trkpt>
      <trkpt lat="59.5024942" lon="17.8077183">
        <ele>19.8</ele>
        <time>2013-10-13T11:58:05Z</time>
      </trkpt>
      <trkpt lat="59.5025318" lon="17.8076325">
        <ele>19.4</ele>
        <time>2013-10-13T11:58:09Z</time>
      </trkpt>
      <trkpt lat="59.5025615" lon="17.8076093">
        <ele>19.2</ele>
        <time>2013-10-13T11:58:11Z</time>
      </trkpt>
      <trkpt lat="59.5025992" lon="17.807526">
        <ele>19</ele>
        <time>2013-10-13T11:58:14Z</time>
      </trkpt>
      <trkpt lat="59.5027286" lon="17.8075316">
        <ele>18.8</ele>
        <time>2013-10-13T11:58:21Z</time>
      </trkpt>
      <trkpt lat="59.5028698" lon="17.8077089">
        <ele>18.4</ele>
        <time>2013-10-13T11:58:29Z</time>
      </trkpt>
      <trkpt lat="59.5029733" lon="17.8077283">
        <ele>18.2</ele>
        <time>2013-10-13T11:58:35Z</time>
      </trkpt>
      <trkpt lat="59.503068" lon="17.8077185">
        <ele>18</ele>
        <time>2013-10-13T11:58:41Z</time>
      </trkpt>
      <trkpt lat="59.5030766" lon="17.8076917">
        <ele>18</ele>
        <time>2013-10-13T11:58:42Z</time>
      </trkpt>
      <trkpt lat="59.5031542" lon="17.8077145">
        <ele>17.8</ele>
        <time>2013-10-13T11:58:46Z</time>
      </trkpt>
      <trkpt lat="59.5032796" lon="17.8077435">
        <ele>17.8</ele>
        <time>2013-10-13T11:58:53Z</time>
      </trkpt>
      <trkpt lat="59.5033982" lon="17.8077739">
        <ele>17.4</ele>
        <time>2013-10-13T11:59:00Z</time>
      </trkpt>
      <trkpt lat="59.5034562" lon="17.807807">
        <ele>17.2</ele>
        <time>2013-10-13T11:59:03Z</time>
      </trkpt>
      <trkpt lat="59.5034982" lon="17.807837">
        <ele>17</ele>
        <time>2013-10-13T11:59:06Z</time>
      </trkpt>
      <trkpt lat="59.5036062" lon="17.8078167">
        <ele>16.6</ele>
        <time>2013-10-13T11:59:13Z</time>
      </trkpt>
      <trkpt lat="59.5036767" lon="17.8077904">
        <ele>16.2</ele>
        <time>2013-10-13T11:59:18Z</time>
      </trkpt>
      <trkpt lat="59.5037618" lon="17.8078777">
        <ele>15.4</ele>
        <time>2013-10-13T11:59:24Z</time>
      </trkpt>
      <trkpt lat="59.5037966" lon="17.8079417">
        <ele>14.6</ele>
        <time>2013-10-13T11:59:29Z</time>
      </trkpt>
      <trkpt lat="59.5038251" lon="17.8079625">
        <ele>14.6</ele>
        <time>2013-10-13T11:59:30Z</time>
      </trkpt>
      <trkpt lat="59.5039302" lon="17.80803">
        <ele>13.8</ele>
        <time>2013-10-13T11:59:36Z</time>
      </trkpt>
      <trkpt lat="59.5039531" lon="17.8080456">
        <ele>13.6</ele>
        <time>2013-10-13T11:59:37Z</time>
      </trkpt>
      <trkpt lat="59.5040405" lon="17.8081053">
        <ele>13.2</ele>
        <time>2013-10-13T11:59:42Z</time>
      </trkpt>
      <trkpt lat="59.5041315" lon="17.8081767">
        <ele>12.4</ele>
        <time>2013-10-13T11:59:48Z</time>
      </trkpt>
      <trkpt lat="59.504248" lon="17.8082986">
        <ele>11.4</ele>
        <time>2013-10-13T11:59:56Z</time>
      </trkpt>
      <trkpt lat="59.5043486" lon="17.8083827">
        <ele>10.8</ele>
        <time>2013-10-13T12:00:02Z</time>
      </trkpt>
      <trkpt lat="59.5044545" lon="17.8084193">
        <ele>10.2</ele>
        <time>2013-10-13T12:00:09Z</time>
      </trkpt>
      <trkpt lat="59.5045611" lon="17.8084326">
        <ele>9.8</ele>
        <time>2013-10-13T12:00:16Z</time>
      </trkpt>
      <trkpt lat="59.5046713" lon="17.8084738">
        <ele>9.6</ele>
        <time>2013-10-13T12:00:22Z</time>
      </trkpt>
      <trkpt lat="59.5047893" lon="17.8085927">
        <ele>9.4</ele>
        <time>2013-10-13T12:00:30Z</time>
      </trkpt>
      <trkpt lat="59.5048766" lon="17.8087271">
        <ele>9.4</ele>
        <time>2013-10-13T12:00:37Z</time>
      </trkpt>
      <trkpt lat="59.5049098" lon="17.8087963">
        <ele>9.6</ele>
        <time>2013-10-13T12:00:40Z</time>
      </trkpt>
      <trkpt lat="59.5049394" lon="17.8088494">
        <ele>9.4</ele>
        <time>2013-10-13T12:00:42Z</time>
      </trkpt>
      <trkpt lat="59.5050678" lon="17.8089561">
        <ele>9.2</ele>
        <time>2013-10-13T12:00:51Z</time>
      </trkpt>
      <trkpt lat="59.5051783" lon="17.8090896">
        <ele>9</ele>
        <time>2013-10-13T12:00:59Z</time>
      </trkpt>
      <trkpt lat="59.5052936" lon="17.8092156">
        <ele>8.6</ele>
        <time>2013-10-13T12:01:07Z</time>
      </trkpt>
      <trkpt lat="59.5053815" lon="17.8093593">
        <ele>8.2</ele>
        <time>2013-10-13T12:01:14Z</time>
      </trkpt>
      <trkpt lat="59.5054117" lon="17.8094696">
        <ele>8.2</ele>
        <time>2013-10-13T12:01:18Z</time>
      </trkpt>
      <trkpt lat="59.5054307" lon="17.8095673">
        <ele>8.2</ele>
        <time>2013-10-13T12:01:21Z</time>
      </trkpt>
      <trkpt lat="59.5054638" lon="17.8097011">
        <ele>8.2</ele>
        <time>2013-10-13T12:01:26Z</time>
      </trkpt>
      <trkpt lat="59.5054821" lon="17.8097414">
        <ele>8.2</ele>
        <time>2013-10-13T12:01:28Z</time>
      </trkpt>
      <trkpt lat="59.5055665" lon="17.8099013">
        <ele>8</ele>
        <time>2013-10-13T12:01:36Z</time>
      </trkpt>
      <trkpt lat="59.5055837" lon="17.8099549">
        <ele>8</ele>
        <time>2013-10-13T12:01:42Z</time>
      </trkpt>
      <trkpt lat="59.5055262" lon="17.8099632">
        <ele>10</ele>
        <time>2013-10-13T12:01:49Z</time>
      </trkpt>
      <trkpt lat="59.5055031" lon="17.8099674">
        <ele>12</ele>
        <time>2013-10-13T12:01:53Z</time>
      </trkpt>
      <trkpt lat="59.505522" lon="17.8099793">
        <ele>12.8</ele>
        <time>2013-10-13T12:01:54Z</time>
      </trkpt>
      <trkpt lat="59.5055599" lon="17.8099784">
        <ele>13.6</ele>
        <time>2013-10-13T12:01:58Z</time>
      </trkpt>
      <trkpt lat="59.505634" lon="17.8100107">
        <ele>14.6</ele>
        <time>2013-10-13T12:02:06Z</time>
      </trkpt>
      <trkpt lat="59.5055919" lon="17.8099792">
        <ele>14.8</ele>
        <time>2013-10-13T12:02:18Z</time>
      </trkpt>
      <trkpt lat="59.50565" lon="17.8099535">
        <ele>15.6</ele>
        <time>2013-10-13T12:02:47Z</time>
      </trkpt>
      <trkpt lat="59.5057231" lon="17.8100042">
        <ele>15.4</ele>
        <time>2013-10-13T12:02:54Z</time>
      </trkpt>
      <trkpt lat="59.505806" lon="17.8100829">
        <ele>15.4</ele>
        <time>2013-10-13T12:03:00Z</time>
      </trkpt>
      <trkpt lat="59.5059194" lon="17.8101448">
        <ele>15.4</ele>
        <time>2013-10-13T12:03:05Z</time>
      </trkpt>
      <trkpt lat="59.5060116" lon="17.8101953">
        <ele>15.2</ele>
        <time>2013-10-13T12:03:11Z</time>
      </trkpt>
      <trkpt lat="59.5060597" lon="17.8102048">
        <ele>15.2</ele>
        <time>2013-10-13T12:03:14Z</time>
      </trkpt>
      <trkpt lat="59.5061031" lon="17.8101819">
        <ele>15.2</ele>
        <time>2013-10-13T12:03:17Z</time>
      </trkpt>
      <trkpt lat="59.5062108" lon="17.810091">
        <ele>15</ele>
        <time>2013-10-13T12:03:24Z</time>
      </trkpt>
      <trkpt lat="59.506291" lon="17.8100119">
        <ele>14.8</ele>
        <time>2013-10-13T12:03:30Z</time>
      </trkpt>
      <trkpt lat="59.506398" lon="17.8099176">
        <ele>14.4</ele>
        <time>2013-10-13T12:03:37Z</time>
      </trkpt>
      <trkpt lat="59.5065007" lon="17.8099113">
        <ele>14</ele>
        <time>2013-10-13T12:03:44Z</time>
      </trkpt>
      <trkpt lat="59.5066182" lon="17.8099393">
        <ele>13.4</ele>
        <time>2013-10-13T12:03:52Z</time>
      </trkpt>
      <trkpt lat="59.5067124" lon="17.8099794">
        <ele>13</ele>
        <time>2013-10-13T12:03:59Z</time>
      </trkpt>
      <trkpt lat="59.5067769" lon="17.8100136">
        <ele>12.8</ele>
        <time>2013-10-13T12:04:07Z</time>
      </trkpt>
      <trkpt lat="59.5068249" lon="17.8100474">
        <ele>16</ele>
        <time>2013-10-13T12:04:22Z</time>
      </trkpt>
      <trkpt lat="59.5069185" lon="17.810113">
        <ele>17</ele>
        <time>2013-10-13T12:04:29Z</time>
      </trkpt>
      <trkpt lat="59.5070505" lon="17.8101508">
        <ele>17</ele>
        <time>2013-10-13T12:04:37Z</time>
      </trkpt>
      <trkpt lat="59.5071649" lon="17.8102589">
        <ele>16.6</ele>
        <time>2013-10-13T12:04:45Z</time>
      </trkpt>
      <trkpt lat="59.5072579" lon="17.8103611">
        <ele>16.4</ele>
        <time>2013-10-13T12:04:51Z</time>
      </trkpt>
      <trkpt lat="59.5073146" lon="17.8103819">
        <ele>16.2</ele>
        <time>2013-10-13T12:04:55Z</time>
      </trkpt>
      <trkpt lat="59.5073588" lon="17.8103691">
        <ele>16</ele>
        <time>2013-10-13T12:04:58Z</time>
      </trkpt>
      <trkpt lat="59.5074578" lon="17.8103325">
        <ele>15.6</ele>
        <time>2013-10-13T12:05:06Z</time>
      </trkpt>
      <trkpt lat="59.5075695" lon="17.810439">
        <ele>15</ele>
        <time>2013-10-13T12:05:13Z</time>
      </trkpt>
      <trkpt lat="59.5076671" lon="17.8105447">
        <ele>14.4</ele>
        <time>2013-10-13T12:05:19Z</time>
      </trkpt>
      <trkpt lat="59.5076684" lon="17.8105643">
        <ele>14.4</ele>
        <time>2013-10-13T12:05:20Z</time>
      </trkpt>
      <trkpt lat="59.5077347" lon="17.8106418">
        <ele>14.2</ele>
        <time>2013-10-13T12:05:24Z</time>
      </trkpt>
      <trkpt lat="59.5078184" lon="17.810622">
        <ele>14</ele>
        <time>2013-10-13T12:05:30Z</time>
      </trkpt>
      <trkpt lat="59.5078912" lon="17.8105622">
        <ele>14</ele>
        <time>2013-10-13T12:05:37Z</time>
      </trkpt>
      <trkpt lat="59.5079645" lon="17.8105449">
        <ele>14</ele>
        <time>2013-10-13T12:05:42Z</time>
      </trkpt>
      <trkpt lat="59.5079807" lon="17.8105487">
        <ele>14</ele>
        <time>2013-10-13T12:05:44Z</time>
      </trkpt>
      <trkpt lat="59.5080046" lon="17.8105559">
        <ele>14</ele>
        <time>2013-10-13T12:05:47Z</time>
      </trkpt>
      <trkpt lat="59.5080853" lon="17.8105046">
        <ele>13.8</ele>
        <time>2013-10-13T12:05:54Z</time>
      </trkpt>
      <trkpt lat="59.5081163" lon="17.8105152">
        <ele>13.6</ele>
        <time>2013-10-13T12:05:56Z</time>
      </trkpt>
      <trkpt lat="59.5081865" lon="17.8105004">
        <ele>13.4</ele>
        <time>2013-10-13T12:06:00Z</time>
      </trkpt>
      <trkpt lat="59.5082681" lon="17.8105191">
        <ele>13.2</ele>
        <time>2013-10-13T12:06:06Z</time>
      </trkpt>
      <trkpt lat="59.5083418" lon="17.8105803">
        <ele>13</ele>
        <time>2013-10-13T12:06:12Z</time>
      </trkpt>
      <trkpt lat="59.5083463" lon="17.8105853">
        <ele>13</ele>
        <time>2013-10-13T12:06:13Z</time>
      </trkpt>
      <trkpt lat="59.5083587" lon="17.8106352">
        <ele>13</ele>
        <time>2013-10-13T12:06:15Z</time>
      </trkpt>
      <trkpt lat="59.5083745" lon="17.8106797">
        <ele>13</ele>
        <time>2013-10-13T12:06:17Z</time>
      </trkpt>
      <trkpt lat="59.5084081" lon="17.81074">
        <ele>13</ele>
        <time>2013-10-13T12:06:20Z</time>
      </trkpt>
      <trkpt lat="59.5084352" lon="17.8107801">
        <ele>13</ele>
        <time>2013-10-13T12:06:23Z</time>
      </trkpt>
      <trkpt lat="59.5084656" lon="17.810786">
        <ele>13.6</ele>
        <time>2013-10-13T12:06:26Z</time>
      </trkpt>
      <trkpt lat="59.5084844" lon="17.8107644">
        <ele>14</ele>
        <time>2013-10-13T12:06:28Z</time>
      </trkpt>
      <trkpt lat="59.508494" lon="17.8107571">
        <ele>14.2</ele>
        <time>2013-10-13T12:06:29Z</time>
      </trkpt>
      <trkpt lat="59.5085727" lon="17.8107037">
        <ele>14.8</ele>
        <time>2013-10-13T12:06:33Z</time>
      </trkpt>
      <trkpt lat="59.5086762" lon="17.8106799">
        <ele>14.8</ele>
        <time>2013-10-13T12:06:40Z</time>
      </trkpt>
      <trkpt lat="59.5086972" lon="17.8106919">
        <ele>14.8</ele>
        <time>2013-10-13T12:06:43Z</time>
      </trkpt>
      <trkpt lat="59.5087501" lon="17.8107004">
        <ele>14.8</ele>
        <time>2013-10-13T12:06:46Z</time>
      </trkpt>
      <trkpt lat="59.5087617" lon="17.8106889">
        <ele>14.8</ele>
        <time>2013-10-13T12:06:48Z</time>
      </trkpt>
      <trkpt lat="59.5087783" lon="17.810653">
        <ele>14.8</ele>
        <time>2013-10-13T12:06:49Z</time>
      </trkpt>
      <trkpt lat="59.5088373" lon="17.8106132">
        <ele>14.8</ele>
        <time>2013-10-13T12:06:53Z</time>
      </trkpt>
      <trkpt lat="59.5089364" lon="17.8105444">
        <ele>14.6</ele>
        <time>2013-10-13T12:06:58Z</time>
      </trkpt>
      <trkpt lat="59.5090079" lon="17.8105437">
        <ele>14.4</ele>
        <time>2013-10-13T12:07:04Z</time>
      </trkpt>
      <trkpt lat="59.5090531" lon="17.81059">
        <ele>14.4</ele>
        <time>2013-10-13T12:07:07Z</time>
      </trkpt>
      <trkpt lat="59.5090867" lon="17.8106293">
        <ele>14.2</ele>
        <time>2013-10-13T12:07:09Z</time>
      </trkpt>
      <trkpt lat="59.5091149" lon="17.8106504">
        <ele>14.2</ele>
        <time>2013-10-13T12:07:10Z</time>
      </trkpt>
      <trkpt lat="59.5091485" lon="17.8106822">
        <ele>14.2</ele>
        <time>2013-10-13T12:07:13Z</time>
      </trkpt>
      <trkpt lat="59.509188" lon="17.8106584">
        <ele>14.2</ele>
        <time>2013-10-13T12:07:15Z</time>
      </trkpt>
      <trkpt lat="59.5092271" lon="17.8106875">
        <ele>14.2</ele>
        <time>2013-10-13T12:07:18Z</time>
      </trkpt>
      <trkpt lat="59.5092357" lon="17.810699">
        <ele>14.2</ele>
        <time>2013-10-13T12:07:19Z</time>
      </trkpt>
      <trkpt lat="59.5093019" lon="17.810763">
        <ele>14.2</ele>
        <time>2013-10-13T12:07:25Z</time>
      </trkpt>
      <trkpt lat="59.5093945" lon="17.810762">
        <ele>14.6</ele>
        <time>2013-10-13T12:07:30Z</time>
      </trkpt>
      <trkpt lat="59.509484" lon="17.8108095">
        <ele>14.4</ele>
        <time>2013-10-13T12:07:35Z</time>
      </trkpt>
      <trkpt lat="59.5095415" lon="17.8108189">
        <ele>14.6</ele>
        <time>2013-10-13T12:07:38Z</time>
      </trkpt>
      <trkpt lat="59.5095769" lon="17.8108362">
        <ele>15</ele>
        <time>2013-10-13T12:07:40Z</time>
      </trkpt>
      <trkpt lat="59.5096739" lon="17.8108667">
        <ele>15.6</ele>
        <time>2013-10-13T12:07:46Z</time>
      </trkpt>
      <trkpt lat="59.5097321" lon="17.8108896">
        <ele>16.4</ele>
        <time>2013-10-13T12:07:51Z</time>
      </trkpt>
      <trkpt lat="59.509746" lon="17.8109099">
        <ele>16.6</ele>
        <time>2013-10-13T12:07:52Z</time>
      </trkpt>
      <trkpt lat="59.5097891" lon="17.8109355">
        <ele>17</ele>
        <time>2013-10-13T12:07:56Z</time>
      </trkpt>
      <trkpt lat="59.5097993" lon="17.8109435">
        <ele>17.2</ele>
        <time>2013-10-13T12:07:57Z</time>
      </trkpt>
      <trkpt lat="59.509863" lon="17.8109794">
        <ele>17.8</ele>
        <time>2013-10-13T12:08:03Z</time>
      </trkpt>
      <trkpt lat="59.5099427" lon="17.8109712">
        <ele>18.2</ele>
        <time>2013-10-13T12:08:09Z</time>
      </trkpt>
      <trkpt lat="59.5100247" lon="17.8110262">
        <ele>18.4</ele>
        <time>2013-10-13T12:08:16Z</time>
      </trkpt>
      <trkpt lat="59.5100455" lon="17.8110246">
        <ele>18.4</ele>
        <time>2013-10-13T12:08:17Z</time>
      </trkpt>
      <trkpt lat="59.5101075" lon="17.8110084">
        <ele>18.4</ele>
        <time>2013-10-13T12:08:22Z</time>
      </trkpt>
      <trkpt lat="59.5101155" lon="17.8110142">
        <ele>18.4</ele>
        <time>2013-10-13T12:08:23Z</time>
      </trkpt>
      <trkpt lat="59.5101536" lon="17.8110101">
        <ele>18.6</ele>
        <time>2013-10-13T12:08:25Z</time>
      </trkpt>
      <trkpt lat="59.5101688" lon="17.8110189">
        <ele>18.6</ele>
        <time>2013-10-13T12:08:26Z</time>
      </trkpt>
      <trkpt lat="59.5102162" lon="17.8110167">
        <ele>18.6</ele>
        <time>2013-10-13T12:08:29Z</time>
      </trkpt>
      <trkpt lat="59.5102546" lon="17.8110272">
        <ele>18.6</ele>
        <time>2013-10-13T12:08:32Z</time>
      </trkpt>
      <trkpt lat="59.5103059" lon="17.811056">
        <ele>18.8</ele>
        <time>2013-10-13T12:08:34Z</time>
      </trkpt>
      <trkpt lat="59.5103371" lon="17.8110789">
        <ele>19</ele>
        <time>2013-10-13T12:08:37Z</time>
      </trkpt>
      <trkpt lat="59.5104396" lon="17.8111429">
        <ele>19.2</ele>
        <time>2013-10-13T12:08:43Z</time>
      </trkpt>
      <trkpt lat="59.5105473" lon="17.8112792">
        <ele>19.2</ele>
        <time>2013-10-13T12:08:50Z</time>
      </trkpt>
      <trkpt lat="59.5106381" lon="17.811394">
        <ele>19.4</ele>
        <time>2013-10-13T12:08:57Z</time>
      </trkpt>
      <trkpt lat="59.5106876" lon="17.8114681">
        <ele>19.2</ele>
        <time>2013-10-13T12:09:02Z</time>
      </trkpt>
      <trkpt lat="59.5106937" lon="17.8114862">
        <ele>19.2</ele>
        <time>2013-10-13T12:09:04Z</time>
      </trkpt>
      <trkpt lat="59.510726" lon="17.811501">
        <ele>19.4</ele>
        <time>2013-10-13T12:09:08Z</time>
      </trkpt>
      <trkpt lat="59.5107386" lon="17.8114978">
        <ele>19.4</ele>
        <time>2013-10-13T12:09:09Z</time>
      </trkpt>
      <trkpt lat="59.5107633" lon="17.8115081">
        <ele>19.4</ele>
        <time>2013-10-13T12:09:11Z</time>
      </trkpt>
      <trkpt lat="59.5107813" lon="17.8115087">
        <ele>19.4</ele>
        <time>2013-10-13T12:09:13Z</time>
      </trkpt>
      <trkpt lat="59.5108488" lon="17.8115792">
        <ele>19.2</ele>
        <time>2013-10-13T12:09:21Z</time>
      </trkpt>
      <trkpt lat="59.5108752" lon="17.8115888">
        <ele>19.2</ele>
        <time>2013-10-13T12:09:23Z</time>
      </trkpt>
      <trkpt lat="59.5109144" lon="17.8116494">
        <ele>19.2</ele>
        <time>2013-10-13T12:09:26Z</time>
      </trkpt>
      <trkpt lat="59.5109275" lon="17.8116778">
        <ele>19.2</ele>
        <time>2013-10-13T12:09:28Z</time>
      </trkpt>
      <trkpt lat="59.5109502" lon="17.8117076">
        <ele>19.4</ele>
        <time>2013-10-13T12:09:30Z</time>
      </trkpt>
      <trkpt lat="59.5109568" lon="17.8117144">
        <ele>19.4</ele>
        <time>2013-10-13T12:09:31Z</time>
      </trkpt>
      <trkpt lat="59.5110604" lon="17.8117861">
        <ele>20.2</ele>
        <time>2013-10-13T12:09:38Z</time>
      </trkpt>
      <trkpt lat="59.511071" lon="17.8117878">
        <ele>20.6</ele>
        <time>2013-10-13T12:09:39Z</time>
      </trkpt>
      <trkpt lat="59.5111305" lon="17.8117702">
        <ele>21.6</ele>
        <time>2013-10-13T12:09:43Z</time>
      </trkpt>
      <trkpt lat="59.5111689" lon="17.811748">
        <ele>22</ele>
        <time>2013-10-13T12:09:45Z</time>
      </trkpt>
      <trkpt lat="59.5112775" lon="17.8118444">
        <ele>23.4</ele>
        <time>2013-10-13T12:09:52Z</time>
      </trkpt>
      <trkpt lat="59.5112938" lon="17.8118582">
        <ele>23.6</ele>
        <time>2013-10-13T12:09:53Z</time>
      </trkpt>
      <trkpt lat="59.5113513" lon="17.8118747">
        <ele>24.2</ele>
        <time>2013-10-13T12:09:58Z</time>
      </trkpt>
      <trkpt lat="59.5113742" lon="17.8118772">
        <ele>24.6</ele>
        <time>2013-10-13T12:10:00Z</time>
      </trkpt>
      <trkpt lat="59.5114144" lon="17.8118855">
        <ele>25</ele>
        <time>2013-10-13T12:10:03Z</time>
      </trkpt>
      <trkpt lat="59.5115432" lon="17.8119368">
        <ele>25.4</ele>
        <time>2013-10-13T12:10:10Z</time>
      </trkpt>
      <trkpt lat="59.5116274" lon="17.8119954">
        <ele>25.4</ele>
        <time>2013-10-13T12:10:17Z</time>
      </trkpt>
      <trkpt lat="59.5116528" lon="17.8119945">
        <ele>25.4</ele>
        <time>2013-10-13T12:10:19Z</time>
      </trkpt>
      <trkpt lat="59.5116653" lon="17.8119798">
        <ele>25.4</ele>
        <time>2013-10-13T12:10:20Z</time>
      </trkpt>
      <trkpt lat="59.5117298" lon="17.8119761">
        <ele>25.2</ele>
        <time>2013-10-13T12:10:25Z</time>
      </trkpt>
      <trkpt lat="59.5117391" lon="17.8120145">
        <ele>25</ele>
        <time>2013-10-13T12:10:27Z</time>
      </trkpt>
      <trkpt lat="59.5117698" lon="17.8121151">
        <ele>24.4</ele>
        <time>2013-10-13T12:10:33Z</time>
      </trkpt>
      <trkpt lat="59.5117868" lon="17.8121579">
        <ele>24</ele>
        <time>2013-10-13T12:10:36Z</time>
      </trkpt>
      <trkpt lat="59.5117945" lon="17.8121985">
        <ele>23.8</ele>
        <time>2013-10-13T12:10:38Z</time>
      </trkpt>
      <trkpt lat="59.5118063" lon="17.8122126">
        <ele>23.6</ele>
        <time>2013-10-13T12:10:39Z</time>
      </trkpt>
      <trkpt lat="59.5118476" lon="17.8122611">
        <ele>23.2</ele>
        <time>2013-10-13T12:10:43Z</time>
      </trkpt>
      <trkpt lat="59.511858" lon="17.8122763">
        <ele>23</ele>
        <time>2013-10-13T12:10:44Z</time>
      </trkpt>
      <trkpt lat="59.5118764" lon="17.8123474">
        <ele>22.6</ele>
        <time>2013-10-13T12:10:48Z</time>
      </trkpt>
      <trkpt lat="59.5118995" lon="17.812382">
        <ele>22.4</ele>
        <time>2013-10-13T12:10:50Z</time>
      </trkpt>
      <trkpt lat="59.5118964" lon="17.8124459">
        <ele>22.2</ele>
        <time>2013-10-13T12:10:53Z</time>
      </trkpt>
      <trkpt lat="59.5119568" lon="17.8125605">
        <ele>21.8</ele>
        <time>2013-10-13T12:10:58Z</time>
      </trkpt>
      <trkpt lat="59.5119897" lon="17.8126108">
        <ele>21.6</ele>
        <time>2013-10-13T12:11:01Z</time>
      </trkpt>
      <trkpt lat="59.5120077" lon="17.8126521">
        <ele>21.4</ele>
        <time>2013-10-13T12:11:03Z</time>
      </trkpt>
      <trkpt lat="59.5120318" lon="17.8127598">
        <ele>20.8</ele>
        <time>2013-10-13T12:11:09Z</time>
      </trkpt>
      <trkpt lat="59.5121093" lon="17.8129243">
        <ele>20</ele>
        <time>2013-10-13T12:11:16Z</time>
      </trkpt>
      <trkpt lat="59.5121242" lon="17.8129584">
        <ele>19.8</ele>
        <time>2013-10-13T12:11:17Z</time>
      </trkpt>
      <trkpt lat="59.5121318" lon="17.8130068">
        <ele>19.6</ele>
        <time>2013-10-13T12:11:19Z</time>
      </trkpt>
      <trkpt lat="59.5121718" lon="17.8130974">
        <ele>19.4</ele>
        <time>2013-10-13T12:11:23Z</time>
      </trkpt>
      <trkpt lat="59.5121795" lon="17.8131123">
        <ele>19.4</ele>
        <time>2013-10-13T12:11:24Z</time>
      </trkpt>
      <trkpt lat="59.5121943" lon="17.8131237">
        <ele>19.2</ele>
        <time>2013-10-13T12:11:25Z</time>
      </trkpt>
      <trkpt lat="59.5122631" lon="17.8131328">
        <ele>19</ele>
        <time>2013-10-13T12:11:29Z</time>
      </trkpt>
      <trkpt lat="59.5122954" lon="17.8131229">
        <ele>18.8</ele>
        <time>2013-10-13T12:11:31Z</time>
      </trkpt>
      <trkpt lat="59.512329" lon="17.8131047">
        <ele>18.6</ele>
        <time>2013-10-13T12:11:34Z</time>
      </trkpt>
      <trkpt lat="59.5123438" lon="17.813113">
        <ele>18.6</ele>
        <time>2013-10-13T12:11:35Z</time>
      </trkpt>
      <trkpt lat="59.5123614" lon="17.8131266">
        <ele>18.4</ele>
        <time>2013-10-13T12:11:37Z</time>
      </trkpt>
      <trkpt lat="59.5124165" lon="17.8131226">
        <ele>18</ele>
        <time>2013-10-13T12:11:42Z</time>
      </trkpt>
      <trkpt lat="59.5124751" lon="17.8131086">
        <ele>15</ele>
        <time>2013-10-13T12:12:25Z</time>
      </trkpt>
      <trkpt lat="59.5124562" lon="17.8131724">
        <ele>14.8</ele>
        <time>2013-10-13T12:12:27Z</time>
      </trkpt>
      <trkpt lat="59.5124006" lon="17.8133383">
        <ele>14.4</ele>
        <time>2013-10-13T12:12:34Z</time>
      </trkpt>
      <trkpt lat="59.512408" lon="17.8133611">
        <ele>14.2</ele>
        <time>2013-10-13T12:12:35Z</time>
      </trkpt>
      <trkpt lat="59.5124147" lon="17.8134313">
        <ele>14.2</ele>
        <time>2013-10-13T12:12:37Z</time>
      </trkpt>
      <trkpt lat="59.5124285" lon="17.813465">
        <ele>14.2</ele>
        <time>2013-10-13T12:12:38Z</time>
      </trkpt>
      <trkpt lat="59.5124676" lon="17.8136214">
        <ele>14</ele>
        <time>2013-10-13T12:12:44Z</time>
      </trkpt>
      <trkpt lat="59.512481" lon="17.8136722">
        <ele>13.8</ele>
        <time>2013-10-13T12:12:47Z</time>
      </trkpt>
      <trkpt lat="59.5124819" lon="17.8137116">
        <ele>13.6</ele>
        <time>2013-10-13T12:12:50Z</time>
      </trkpt>
      <trkpt lat="59.5125242" lon="17.8138662">
        <ele>13.4</ele>
        <time>2013-10-13T12:12:56Z</time>
      </trkpt>
      <trkpt lat="59.5125267" lon="17.8139127">
        <ele>13.4</ele>
        <time>2013-10-13T12:12:58Z</time>
      </trkpt>
      <trkpt lat="59.5125175" lon="17.8140043">
        <ele>13.2</ele>
        <time>2013-10-13T12:13:01Z</time>
      </trkpt>
      <trkpt lat="59.5125337" lon="17.8140386">
        <ele>13.4</ele>
        <time>2013-10-13T12:13:02Z</time>
      </trkpt>
      <trkpt lat="59.5125313" lon="17.8141068">
        <ele>13.2</ele>
        <time>2013-10-13T12:13:05Z</time>
      </trkpt>
      <trkpt lat="59.5125299" lon="17.8141288">
        <ele>13</ele>
        <time>2013-10-13T12:13:06Z</time>
      </trkpt>
      <trkpt lat="59.5125323" lon="17.8141868">
        <ele>12.8</ele>
        <time>2013-10-13T12:13:08Z</time>
      </trkpt>
      <trkpt lat="59.5125344" lon="17.8142622">
        <ele>12.6</ele>
        <time>2013-10-13T12:13:11Z</time>
      </trkpt>
      <trkpt lat="59.5125473" lon="17.8143081">
        <ele>12.6</ele>
        <time>2013-10-13T12:13:13Z</time>
      </trkpt>
      <trkpt lat="59.5126174" lon="17.8143831">
        <ele>12.4</ele>
        <time>2013-10-13T12:13:18Z</time>
      </trkpt>
      <trkpt lat="59.512654" lon="17.8144036">
        <ele>12.4</ele>
        <time>2013-10-13T12:13:20Z</time>
      </trkpt>
      <trkpt lat="59.5126615" lon="17.8144323">
        <ele>12.4</ele>
        <time>2013-10-13T12:13:21Z</time>
      </trkpt>
      <trkpt lat="59.5127387" lon="17.8144848">
        <ele>12.4</ele>
        <time>2013-10-13T12:13:24Z</time>
      </trkpt>
      <trkpt lat="59.5127997" lon="17.814616">
        <ele>12.4</ele>
        <time>2013-10-13T12:13:31Z</time>
      </trkpt>
      <trkpt lat="59.5128949" lon="17.8147279">
        <ele>12.4</ele>
        <time>2013-10-13T12:13:37Z</time>
      </trkpt>
      <trkpt lat="59.5129635" lon="17.8147521">
        <ele>12.8</ele>
        <time>2013-10-13T12:13:43Z</time>
      </trkpt>
      <trkpt lat="59.5130137" lon="17.8147795">
        <ele>13.2</ele>
        <time>2013-10-13T12:13:46Z</time>
      </trkpt>
      <trkpt lat="59.5130511" lon="17.8148025">
        <ele>13.6</ele>
        <time>2013-10-13T12:13:48Z</time>
      </trkpt>
      <trkpt lat="59.5130606" lon="17.8148316">
        <ele>13.8</ele>
        <time>2013-10-13T12:13:49Z</time>
      </trkpt>
      <trkpt lat="59.5131297" lon="17.8148767">
        <ele>14.4</ele>
        <time>2013-10-13T12:13:53Z</time>
      </trkpt>
      <trkpt lat="59.5131658" lon="17.814923">
        <ele>15</ele>
        <time>2013-10-13T12:13:55Z</time>
      </trkpt>
      <trkpt lat="59.5132517" lon="17.8150159">
        <ele>15.8</ele>
        <time>2013-10-13T12:14:01Z</time>
      </trkpt>
      <trkpt lat="59.5132934" lon="17.815166">
        <ele>16.8</ele>
        <time>2013-10-13T12:14:08Z</time>
      </trkpt>
      <trkpt lat="59.5132985" lon="17.8151878">
        <ele>17</ele>
        <time>2013-10-13T12:14:09Z</time>
      </trkpt>
      <trkpt lat="59.5133083" lon="17.8152523">
        <ele>17.2</ele>
        <time>2013-10-13T12:14:11Z</time>
      </trkpt>
      <trkpt lat="59.5133266" lon="17.8152996">
        <ele>17.4</ele>
        <time>2013-10-13T12:14:13Z</time>
      </trkpt>
      <trkpt lat="59.5133248" lon="17.8153351">
        <ele>17.8</ele>
        <time>2013-10-13T12:14:15Z</time>
      </trkpt>
      <trkpt lat="59.5133406" lon="17.8153671">
        <ele>18.2</ele>
        <time>2013-10-13T12:14:17Z</time>
      </trkpt>
      <trkpt lat="59.5134606" lon="17.8154588">
        <ele>19.2</ele>
        <time>2013-10-13T12:14:23Z</time>
      </trkpt>
      <trkpt lat="59.513536" lon="17.8156038">
        <ele>20.8</ele>
        <time>2013-10-13T12:14:31Z</time>
      </trkpt>
      <trkpt lat="59.5135409" lon="17.8156536">
        <ele>21</ele>
        <time>2013-10-13T12:14:34Z</time>
      </trkpt>
      <trkpt lat="59.5135832" lon="17.815708">
        <ele>21.2</ele>
        <time>2013-10-13T12:14:38Z</time>
      </trkpt>
      <trkpt lat="59.5136724" lon="17.8157982">
        <ele>21.4</ele>
        <time>2013-10-13T12:14:44Z</time>
      </trkpt>
      <trkpt lat="59.5136693" lon="17.8158235">
        <ele>21.2</ele>
        <time>2013-10-13T12:14:45Z</time>
      </trkpt>
      <trkpt lat="59.5137098" lon="17.815837">
        <ele>21.2</ele>
        <time>2013-10-13T12:14:48Z</time>
      </trkpt>
      <trkpt lat="59.5137127" lon="17.8158596">
        <ele>21.2</ele>
        <time>2013-10-13T12:14:52Z</time>
      </trkpt>
      <trkpt lat="59.5137699" lon="17.8159148">
        <ele>21</ele>
        <time>2013-10-13T12:14:55Z</time>
      </trkpt>
      <trkpt lat="59.5137742" lon="17.8159221">
        <ele>21</ele>
        <time>2013-10-13T12:14:56Z</time>
      </trkpt>
      <trkpt lat="59.5138281" lon="17.8159703">
        <ele>21</ele>
        <time>2013-10-13T12:15:00Z</time>
      </trkpt>
      <trkpt lat="59.5138465" lon="17.8159914">
        <ele>21</ele>
        <time>2013-10-13T12:15:01Z</time>
      </trkpt>
      <trkpt lat="59.5139148" lon="17.8160866">
        <ele>20.8</ele>
        <time>2013-10-13T12:15:06Z</time>
      </trkpt>
      <trkpt lat="59.5139901" lon="17.816183">
        <ele>20.8</ele>
        <time>2013-10-13T12:15:12Z</time>
      </trkpt>
      <trkpt lat="59.5140898" lon="17.8162116">
        <ele>21</ele>
        <time>2013-10-13T12:15:17Z</time>
      </trkpt>
      <trkpt lat="59.5141255" lon="17.8162102">
        <ele>20.8</ele>
        <time>2013-10-13T12:15:20Z</time>
      </trkpt>
      <trkpt lat="59.5141773" lon="17.8162562">
        <ele>20.8</ele>
        <time>2013-10-13T12:15:23Z</time>
      </trkpt>
      <trkpt lat="59.5142487" lon="17.8163477">
        <ele>20.6</ele>
        <time>2013-10-13T12:15:28Z</time>
      </trkpt>
      <trkpt lat="59.51425" lon="17.8164179">
        <ele>20.4</ele>
        <time>2013-10-13T12:15:31Z</time>
      </trkpt>
      <trkpt lat="59.5142448" lon="17.8164409">
        <ele>20.4</ele>
        <time>2013-10-13T12:15:32Z</time>
      </trkpt>
      <trkpt lat="59.5142313" lon="17.8165456">
        <ele>20</ele>
        <time>2013-10-13T12:15:35Z</time>
      </trkpt>
      <trkpt lat="59.5142461" lon="17.8165908">
        <ele>19.6</ele>
        <time>2013-10-13T12:15:38Z</time>
      </trkpt>
      <trkpt lat="59.5143062" lon="17.8166604">
        <ele>19</ele>
        <time>2013-10-13T12:15:44Z</time>
      </trkpt>
      <trkpt lat="59.5143702" lon="17.8167085">
        <ele>18.8</ele>
        <time>2013-10-13T12:15:48Z</time>
      </trkpt>
      <trkpt lat="59.5143882" lon="17.8167312">
        <ele>18.6</ele>
        <time>2013-10-13T12:15:50Z</time>
      </trkpt>
      <trkpt lat="59.5144117" lon="17.8167559">
        <ele>18.6</ele>
        <time>2013-10-13T12:15:51Z</time>
      </trkpt>
      <trkpt lat="59.5144862" lon="17.8168243">
        <ele>18.4</ele>
        <time>2013-10-13T12:15:56Z</time>
      </trkpt>
      <trkpt lat="59.5145096" lon="17.8168431">
        <ele>18.4</ele>
        <time>2013-10-13T12:15:58Z</time>
      </trkpt>
      <trkpt lat="59.514519" lon="17.816928">
        <ele>18.2</ele>
        <time>2013-10-13T12:16:01Z</time>
      </trkpt>
      <trkpt lat="59.514527" lon="17.81697">
        <ele>18.2</ele>
        <time>2013-10-13T12:16:03Z</time>
      </trkpt>
      <trkpt lat="59.5145736" lon="17.8171605">
        <ele>17.6</ele>
        <time>2013-10-13T12:16:11Z</time>
      </trkpt>
      <trkpt lat="59.5145902" lon="17.8172168">
        <ele>17.6</ele>
        <time>2013-10-13T12:16:13Z</time>
      </trkpt>
      <trkpt lat="59.5145923" lon="17.8173017">
        <ele>17.2</ele>
        <time>2013-10-13T12:16:17Z</time>
      </trkpt>
      <trkpt lat="59.5146359" lon="17.8174433">
        <ele>16.6</ele>
        <time>2013-10-13T12:16:22Z</time>
      </trkpt>
      <trkpt lat="59.5146681" lon="17.8176077">
        <ele>16.2</ele>
        <time>2013-10-13T12:16:28Z</time>
      </trkpt>
      <trkpt lat="59.5146924" lon="17.8177543">
        <ele>15.8</ele>
        <time>2013-10-13T12:16:33Z</time>
      </trkpt>
      <trkpt lat="59.5146774" lon="17.8179203">
        <ele>15</ele>
        <time>2013-10-13T12:16:39Z</time>
      </trkpt>
      <trkpt lat="59.5146835" lon="17.8180335">
        <ele>14.6</ele>
        <time>2013-10-13T12:16:43Z</time>
      </trkpt>
      <trkpt lat="59.5146732" lon="17.8181157">
        <ele>14.2</ele>
        <time>2013-10-13T12:16:46Z</time>
      </trkpt>
      <trkpt lat="59.5146474" lon="17.8182183">
        <ele>13.8</ele>
        <time>2013-10-13T12:16:50Z</time>
      </trkpt>
      <trkpt lat="59.5146481" lon="17.8182693">
        <ele>13.6</ele>
        <time>2013-10-13T12:16:52Z</time>
      </trkpt>
      <trkpt lat="59.514603" lon="17.8183426">
        <ele>12.8</ele>
        <time>2013-10-13T12:16:57Z</time>
      </trkpt>
      <trkpt lat="59.514566" lon="17.8185217">
        <ele>12.6</ele>
        <time>2013-10-13T12:17:02Z</time>
      </trkpt>
      <trkpt lat="59.5145189" lon="17.8186611">
        <ele>12</ele>
        <time>2013-10-13T12:17:08Z</time>
      </trkpt>
      <trkpt lat="59.5145111" lon="17.8187453">
        <ele>11.6</ele>
        <time>2013-10-13T12:17:12Z</time>
      </trkpt>
      <trkpt lat="59.5145043" lon="17.8188041">
        <ele>11.4</ele>
        <time>2013-10-13T12:17:14Z</time>
      </trkpt>
      <trkpt lat="59.5145045" lon="17.8188601">
        <ele>11.2</ele>
        <time>2013-10-13T12:17:16Z</time>
      </trkpt>
      <trkpt lat="59.5145382" lon="17.8189631">
        <ele>11</ele>
        <time>2013-10-13T12:17:20Z</time>
      </trkpt>
      <trkpt lat="59.5145434" lon="17.8189726">
        <ele>11</ele>
        <time>2013-10-13T12:17:21Z</time>
      </trkpt>
      <trkpt lat="59.514541" lon="17.8190199">
        <ele>10.8</ele>
        <time>2013-10-13T12:17:23Z</time>
      </trkpt>
      <trkpt lat="59.5145539" lon="17.8190994">
        <ele>10.6</ele>
        <time>2013-10-13T12:17:26Z</time>
      </trkpt>
      <trkpt lat="59.5145589" lon="17.8191081">
        <ele>10.6</ele>
        <time>2013-10-13T12:17:27Z</time>
      </trkpt>
      <trkpt lat="59.514638" lon="17.8193365">
        <ele>10.4</ele>
        <time>2013-10-13T12:17:34Z</time>
      </trkpt>
      <trkpt lat="59.5146619" lon="17.8194235">
        <ele>10.2</ele>
        <time>2013-10-13T12:17:38Z</time>
      </trkpt>
      <trkpt lat="59.5146785" lon="17.8194468">
        <ele>10.2</ele>
        <time>2013-10-13T12:17:39Z</time>
      </trkpt>
      <trkpt lat="59.5147038" lon="17.819569">
        <ele>10.2</ele>
        <time>2013-10-13T12:17:44Z</time>
      </trkpt>
      <trkpt lat="59.5147155" lon="17.819688">
        <ele>10</ele>
        <time>2013-10-13T12:17:48Z</time>
      </trkpt>
      <trkpt lat="59.5147102" lon="17.8197391">
        <ele>9.8</ele>
        <time>2013-10-13T12:17:50Z</time>
      </trkpt>
      <trkpt lat="59.5147074" lon="17.8198197">
        <ele>9.6</ele>
        <time>2013-10-13T12:17:53Z</time>
      </trkpt>
      <trkpt lat="59.5147012" lon="17.8198559">
        <ele>9.6</ele>
        <time>2013-10-13T12:17:54Z</time>
      </trkpt>
      <trkpt lat="59.5146942" lon="17.8199484">
        <ele>9.4</ele>
        <time>2013-10-13T12:17:57Z</time>
      </trkpt>
      <trkpt lat="59.5146961" lon="17.8199611">
        <ele>9.2</ele>
        <time>2013-10-13T12:17:58Z</time>
      </trkpt>
      <trkpt lat="59.5147117" lon="17.819995">
        <ele>9</ele>
        <time>2013-10-13T12:18:01Z</time>
      </trkpt>
      <trkpt lat="59.5147489" lon="17.8200807">
        <ele>8.8</ele>
        <time>2013-10-13T12:18:04Z</time>
      </trkpt>
      <trkpt lat="59.5147874" lon="17.8201913">
        <ele>8.6</ele>
        <time>2013-10-13T12:18:08Z</time>
      </trkpt>
      <trkpt lat="59.5147983" lon="17.82027">
        <ele>8</ele>
        <time>2013-10-13T12:18:13Z</time>
      </trkpt>
      <trkpt lat="59.5147889" lon="17.8203286">
        <ele>7.8</ele>
        <time>2013-10-13T12:18:14Z</time>
      </trkpt>
      <trkpt lat="59.5147831" lon="17.8205287">
        <ele>6.6</ele>
        <time>2013-10-13T12:18:23Z</time>
      </trkpt>
      <trkpt lat="59.5147934" lon="17.8205954">
        <ele>6.2</ele>
        <time>2013-10-13T12:18:27Z</time>
      </trkpt>
      <trkpt lat="59.5148118" lon="17.8206311">
        <ele>6</ele>
        <time>2013-10-13T12:18:28Z</time>
      </trkpt>
      <trkpt lat="59.5148246" lon="17.8206518">
        <ele>6</ele>
        <time>2013-10-13T12:18:29Z</time>
      </trkpt>
      <trkpt lat="59.5148654" lon="17.8208405">
        <ele>5.8</ele>
        <time>2013-10-13T12:18:35Z</time>
      </trkpt>
      <trkpt lat="59.5149182" lon="17.8209466">
        <ele>6.2</ele>
        <time>2013-10-13T12:18:41Z</time>
      </trkpt>
      <trkpt lat="59.5149355" lon="17.8209643">
        <ele>6.6</ele>
        <time>2013-10-13T12:18:43Z</time>
      </trkpt>
      <trkpt lat="59.5149493" lon="17.8209714">
        <ele>6.8</ele>
        <time>2013-10-13T12:18:45Z</time>
      </trkpt>
      <trkpt lat="59.5150056" lon="17.8209856">
        <ele>7</ele>
        <time>2013-10-13T12:18:49Z</time>
      </trkpt>
      <trkpt lat="59.5150678" lon="17.8210794">
        <ele>7.6</ele>
        <time>2013-10-13T12:18:54Z</time>
      </trkpt>
      <trkpt lat="59.5150948" lon="17.8211347">
        <ele>7.8</ele>
        <time>2013-10-13T12:18:57Z</time>
      </trkpt>
      <trkpt lat="59.5151243" lon="17.8211744">
        <ele>7.8</ele>
        <time>2013-10-13T12:19:00Z</time>
      </trkpt>
      <trkpt lat="59.515185" lon="17.8212864">
        <ele>7.8</ele>
        <time>2013-10-13T12:19:06Z</time>
      </trkpt>
      <trkpt lat="59.5152058" lon="17.8213315">
        <ele>7.8</ele>
        <time>2013-10-13T12:19:08Z</time>
      </trkpt>
      <trkpt lat="59.515283" lon="17.8213753">
        <ele>8</ele>
        <time>2013-10-13T12:19:12Z</time>
      </trkpt>
      <trkpt lat="59.5153136" lon="17.8214045">
        <ele>8.4</ele>
        <time>2013-10-13T12:19:14Z</time>
      </trkpt>
      <trkpt lat="59.5153498" lon="17.8214203">
        <ele>8.6</ele>
        <time>2013-10-13T12:19:17Z</time>
      </trkpt>
      <trkpt lat="59.5153884" lon="17.8214898">
        <ele>9</ele>
        <time>2013-10-13T12:19:22Z</time>
      </trkpt>
      <trkpt lat="59.5154008" lon="17.8215712">
        <ele>9</ele>
        <time>2013-10-13T12:19:26Z</time>
      </trkpt>
      <trkpt lat="59.5154049" lon="17.8216186">
        <ele>9</ele>
        <time>2013-10-13T12:19:28Z</time>
      </trkpt>
      <trkpt lat="59.5154348" lon="17.8216494">
        <ele>9</ele>
        <time>2013-10-13T12:19:31Z</time>
      </trkpt>
      <trkpt lat="59.5154513" lon="17.8216593">
        <ele>9</ele>
        <time>2013-10-13T12:19:33Z</time>
      </trkpt>
      <trkpt lat="59.5154619" lon="17.8216608">
        <ele>9</ele>
        <time>2013-10-13T12:19:34Z</time>
      </trkpt>
      <trkpt lat="59.5155373" lon="17.8216719">
        <ele>9.2</ele>
        <time>2013-10-13T12:19:39Z</time>
      </trkpt>
      <trkpt lat="59.5156243" lon="17.8217627">
        <ele>9.8</ele>
        <time>2013-10-13T12:19:45Z</time>
      </trkpt>
      <trkpt lat="59.5156747" lon="17.8218678">
        <ele>10.4</ele>
        <time>2013-10-13T12:19:50Z</time>
      </trkpt>
      <trkpt lat="59.515719" lon="17.8219904">
        <ele>10.2</ele>
        <time>2013-10-13T12:19:56Z</time>
      </trkpt>
      <trkpt lat="59.5157313" lon="17.8220372">
        <ele>10.4</ele>
        <time>2013-10-13T12:19:59Z</time>
      </trkpt>
      <trkpt lat="59.5157396" lon="17.8220903">
        <ele>10.2</ele>
        <time>2013-10-13T12:20:01Z</time>
      </trkpt>
      <trkpt lat="59.5159023" lon="17.8223027">
        <ele>10.2</ele>
        <time>2013-10-13T12:20:06Z</time>
      </trkpt>
      <trkpt lat="59.5158884" lon="17.8223376">
        <ele>11.2</ele>
        <time>2013-10-13T12:20:07Z</time>
      </trkpt>
      <trkpt lat="59.5158833" lon="17.8223585">
        <ele>11.6</ele>
        <time>2013-10-13T12:20:08Z</time>
      </trkpt>
      <trkpt lat="59.5158761" lon="17.8225027">
        <ele>11.8</ele>
        <time>2013-10-13T12:20:13Z</time>
      </trkpt>
      <trkpt lat="59.5158913" lon="17.8225498">
        <ele>11.6</ele>
        <time>2013-10-13T12:20:16Z</time>
      </trkpt>
      <trkpt lat="59.515929" lon="17.8226297">
        <ele>11.8</ele>
        <time>2013-10-13T12:20:20Z</time>
      </trkpt>
      <trkpt lat="59.5159696" lon="17.822751">
        <ele>11.6</ele>
        <time>2013-10-13T12:20:26Z</time>
      </trkpt>
      <trkpt lat="59.5159891" lon="17.8228397">
        <ele>11.4</ele>
        <time>2013-10-13T12:20:30Z</time>
      </trkpt>
      <trkpt lat="59.516034" lon="17.8229615">
        <ele>11.4</ele>
        <time>2013-10-13T12:20:34Z</time>
      </trkpt>
      <trkpt lat="59.5160512" lon="17.8230068">
        <ele>11.4</ele>
        <time>2013-10-13T12:20:36Z</time>
      </trkpt>
      <trkpt lat="59.5160716" lon="17.8230735">
        <ele>11.4</ele>
        <time>2013-10-13T12:20:39Z</time>
      </trkpt>
      <trkpt lat="59.5160693" lon="17.8231">
        <ele>11.4</ele>
        <time>2013-10-13T12:20:40Z</time>
      </trkpt>
      <trkpt lat="59.5160771" lon="17.8231219">
        <ele>11.6</ele>
        <time>2013-10-13T12:20:41Z</time>
      </trkpt>
      <trkpt lat="59.5161448" lon="17.8232047">
        <ele>12</ele>
        <time>2013-10-13T12:20:45Z</time>
      </trkpt>
      <trkpt lat="59.5161921" lon="17.8232371">
        <ele>12</ele>
        <time>2013-10-13T12:20:48Z</time>
      </trkpt>
      <trkpt lat="59.5162311" lon="17.8232933">
        <ele>12.4</ele>
        <time>2013-10-13T12:20:51Z</time>
      </trkpt>
      <trkpt lat="59.5163037" lon="17.8233865">
        <ele>12.4</ele>
        <time>2013-10-13T12:20:57Z</time>
      </trkpt>
      <trkpt lat="59.5163174" lon="17.8233824">
        <ele>12.6</ele>
        <time>2013-10-13T12:20:58Z</time>
      </trkpt>
      <trkpt lat="59.5163879" lon="17.8234357">
        <ele>12.8</ele>
        <time>2013-10-13T12:21:02Z</time>
      </trkpt>
      <trkpt lat="59.516463" lon="17.8235443">
        <ele>13</ele>
        <time>2013-10-13T12:21:07Z</time>
      </trkpt>
      <trkpt lat="59.5164739" lon="17.8235908">
        <ele>13</ele>
        <time>2013-10-13T12:21:09Z</time>
      </trkpt>
      <trkpt lat="59.5164862" lon="17.8236403">
        <ele>13</ele>
        <time>2013-10-13T12:21:11Z</time>
      </trkpt>
      <trkpt lat="59.5164884" lon="17.8236745">
        <ele>13</ele>
        <time>2013-10-13T12:21:12Z</time>
      </trkpt>
      <trkpt lat="59.5164894" lon="17.8237637">
        <ele>13</ele>
        <time>2013-10-13T12:21:15Z</time>
      </trkpt>
      <trkpt lat="59.5165126" lon="17.8239663">
        <ele>13.4</ele>
        <time>2013-10-13T12:21:20Z</time>
      </trkpt>
      <trkpt lat="59.5165087" lon="17.8239967">
        <ele>13.8</ele>
        <time>2013-10-13T12:21:21Z</time>
      </trkpt>
      <trkpt lat="59.5165376" lon="17.8241988">
        <ele>14.2</ele>
        <time>2013-10-13T12:21:28Z</time>
      </trkpt>
      <trkpt lat="59.5166041" lon="17.8244061">
        <ele>14.4</ele>
        <time>2013-10-13T12:21:36Z</time>
      </trkpt>
      <trkpt lat="59.5166886" lon="17.8245805">
        <ele>14.2</ele>
        <time>2013-10-13T12:21:44Z</time>
      </trkpt>
      <trkpt lat="59.5167178" lon="17.8246638">
        <ele>14</ele>
        <time>2013-10-13T12:21:48Z</time>
      </trkpt>
      <trkpt lat="59.5167148" lon="17.8246853">
        <ele>14</ele>
        <time>2013-10-13T12:21:49Z</time>
      </trkpt>
      <trkpt lat="59.5166774" lon="17.8247338">
        <ele>14</ele>
        <time>2013-10-13T12:21:52Z</time>
      </trkpt>
      <trkpt lat="59.5166299" lon="17.8247997">
        <ele>14</ele>
        <time>2013-10-13T12:21:56Z</time>
      </trkpt>
      <trkpt lat="59.5165635" lon="17.8249616">
        <ele>14</ele>
        <time>2013-10-13T12:22:03Z</time>
      </trkpt>
      <trkpt lat="59.5164761" lon="17.8250715">
        <ele>13.8</ele>
        <time>2013-10-13T12:22:10Z</time>
      </trkpt>
      <trkpt lat="59.5163644" lon="17.8251312">
        <ele>13.8</ele>
        <time>2013-10-13T12:22:17Z</time>
      </trkpt>
      <trkpt lat="59.516238" lon="17.8251325">
        <ele>13.6</ele>
        <time>2013-10-13T12:22:25Z</time>
      </trkpt>
      <trkpt lat="59.5161774" lon="17.8251725">
        <ele>14</ele>
        <time>2013-10-13T12:22:31Z</time>
      </trkpt>
      <trkpt lat="59.5161024" lon="17.8252621">
        <ele>14.4</ele>
        <time>2013-10-13T12:22:37Z</time>
      </trkpt>
      <trkpt lat="59.516062" lon="17.8252961">
        <ele>14.6</ele>
        <time>2013-10-13T12:22:41Z</time>
      </trkpt>
      <trkpt lat="59.516033" lon="17.8253574">
        <ele>15</ele>
        <time>2013-10-13T12:22:44Z</time>
      </trkpt>
      <trkpt lat="59.5159898" lon="17.8254732">
        <ele>15.2</ele>
        <time>2013-10-13T12:22:49Z</time>
      </trkpt>
      <trkpt lat="59.515948" lon="17.8256073">
        <ele>15.6</ele>
        <time>2013-10-13T12:22:55Z</time>
      </trkpt>
      <trkpt lat="59.5159177" lon="17.8257489">
        <ele>16.4</ele>
        <time>2013-10-13T12:23:01Z</time>
      </trkpt>
      <trkpt lat="59.5158826" lon="17.8259652">
        <ele>18</ele>
        <time>2013-10-13T12:23:10Z</time>
      </trkpt>
      <trkpt lat="59.5158272" lon="17.8260705">
        <ele>19.2</ele>
        <time>2013-10-13T12:23:16Z</time>
      </trkpt>
      <trkpt lat="59.5157445" lon="17.8261064">
        <ele>20.6</ele>
        <time>2013-10-13T12:23:22Z</time>
      </trkpt>
      <trkpt lat="59.5156682" lon="17.8260988">
        <ele>21.8</ele>
        <time>2013-10-13T12:23:29Z</time>
      </trkpt>
      <trkpt lat="59.515633" lon="17.8260792">
        <ele>22.2</ele>
        <time>2013-10-13T12:23:32Z</time>
      </trkpt>
      <trkpt lat="59.515609" lon="17.8260691">
        <ele>22.6</ele>
        <time>2013-10-13T12:23:35Z</time>
      </trkpt>
      <trkpt lat="59.5155311" lon="17.8260223">
        <ele>23.6</ele>
        <time>2013-10-13T12:23:42Z</time>
      </trkpt>
      <trkpt lat="59.5154422" lon="17.8260289">
        <ele>24.6</ele>
        <time>2013-10-13T12:23:49Z</time>
      </trkpt>
      <trkpt lat="59.5153415" lon="17.8260875">
        <ele>25.6</ele>
        <time>2013-10-13T12:23:56Z</time>
      </trkpt>
      <trkpt lat="59.5152543" lon="17.8261741">
        <ele>26.8</ele>
        <time>2013-10-13T12:24:03Z</time>
      </trkpt>
      <trkpt lat="59.515183" lon="17.8262762">
        <ele>27.8</ele>
        <time>2013-10-13T12:24:10Z</time>
      </trkpt>
      <trkpt lat="59.5151059" lon="17.8263358">
        <ele>28.6</ele>
        <time>2013-10-13T12:24:16Z</time>
      </trkpt>
      <trkpt lat="59.5151054" lon="17.8263305">
        <ele>28.6</ele>
        <time>2013-10-13T12:24:17Z</time>
      </trkpt>
      <trkpt lat="59.5151151" lon="17.8262603">
        <ele>36.2</ele>
        <time>2013-10-13T12:25:25Z</time>
      </trkpt>
      <trkpt lat="59.5150825" lon="17.8263184">
        <ele>36.2</ele>
        <time>2013-10-13T12:25:28Z</time>
      </trkpt>
      <trkpt lat="59.5150002" lon="17.8264764">
        <ele>36.4</ele>
        <time>2013-10-13T12:25:35Z</time>
      </trkpt>
      <trkpt lat="59.5149001" lon="17.8266529">
        <ele>36.6</ele>
        <time>2013-10-13T12:25:44Z</time>
      </trkpt>
      <trkpt lat="59.5148395" lon="17.8267582">
        <ele>36.8</ele>
        <time>2013-10-13T12:25:49Z</time>
      </trkpt>
      <trkpt lat="59.5148315" lon="17.8267814">
        <ele>36.8</ele>
        <time>2013-10-13T12:25:50Z</time>
      </trkpt>
      <trkpt lat="59.5148144" lon="17.8268845">
        <ele>36.8</ele>
        <time>2013-10-13T12:25:54Z</time>
      </trkpt>
      <trkpt lat="59.5148102" lon="17.8269249">
        <ele>37</ele>
        <time>2013-10-13T12:25:56Z</time>
      </trkpt>
      <trkpt lat="59.5148135" lon="17.8269424">
        <ele>36.8</ele>
        <time>2013-10-13T12:25:57Z</time>
      </trkpt>
      <trkpt lat="59.5148421" lon="17.8270139">
        <ele>36.8</ele>
        <time>2013-10-13T12:26:02Z</time>
      </trkpt>
      <trkpt lat="59.514904" lon="17.8270803">
        <ele>36.8</ele>
        <time>2013-10-13T12:26:09Z</time>
      </trkpt>
      <trkpt lat="59.5149154" lon="17.8270923">
        <ele>36.8</ele>
        <time>2013-10-13T12:26:11Z</time>
      </trkpt>
      <trkpt lat="59.5149299" lon="17.8271145">
        <ele>36.8</ele>
        <time>2013-10-13T12:26:14Z</time>
      </trkpt>
      <trkpt lat="59.5149344" lon="17.8271197">
        <ele>36.8</ele>
        <time>2013-10-13T12:26:15Z</time>
      </trkpt>
      <trkpt lat="59.5149996" lon="17.82718">
        <ele>36.6</ele>
        <time>2013-10-13T12:26:22Z</time>
      </trkpt>
      <trkpt lat="59.5150085" lon="17.8271796">
        <ele>36.6</ele>
        <time>2013-10-13T12:26:23Z</time>
      </trkpt>
      <trkpt lat="59.5150809" lon="17.8272212">
        <ele>36.4</ele>
        <time>2013-10-13T12:26:27Z</time>
      </trkpt>
      <trkpt lat="59.5151096" lon="17.8272454">
        <ele>36.4</ele>
        <time>2013-10-13T12:26:29Z</time>
      </trkpt>
      <trkpt lat="59.5151907" lon="17.8272857">
        <ele>35.6</ele>
        <time>2013-10-13T12:26:36Z</time>
      </trkpt>
      <trkpt lat="59.5152523" lon="17.8272704">
        <ele>35</ele>
        <time>2013-10-13T12:26:42Z</time>
      </trkpt>
      <trkpt lat="59.5152713" lon="17.8272528">
        <ele>34.6</ele>
        <time>2013-10-13T12:26:44Z</time>
      </trkpt>
      <trkpt lat="59.5153728" lon="17.8272484">
        <ele>33.6</ele>
        <time>2013-10-13T12:26:50Z</time>
      </trkpt>
      <trkpt lat="59.5154402" lon="17.8272834">
        <ele>32.8</ele>
        <time>2013-10-13T12:26:55Z</time>
      </trkpt>
      <trkpt lat="59.5154751" lon="17.8272887">
        <ele>32.4</ele>
        <time>2013-10-13T12:26:57Z</time>
      </trkpt>
      <trkpt lat="59.5155933" lon="17.8274079">
        <ele>31.6</ele>
        <time>2013-10-13T12:27:04Z</time>
      </trkpt>
      <trkpt lat="59.5156471" lon="17.8274187">
        <ele>31.2</ele>
        <time>2013-10-13T12:27:08Z</time>
      </trkpt>
      <trkpt lat="59.5157151" lon="17.8273876">
        <ele>30.4</ele>
        <time>2013-10-13T12:27:15Z</time>
      </trkpt>
      <trkpt lat="59.5157464" lon="17.8273568">
        <ele>30</ele>
        <time>2013-10-13T12:27:18Z</time>
      </trkpt>
      <trkpt lat="59.5157507" lon="17.8273413">
        <ele>30</ele>
        <time>2013-10-13T12:27:19Z</time>
      </trkpt>
      <trkpt lat="59.5157679" lon="17.8273233">
        <ele>29.8</ele>
        <time>2013-10-13T12:27:21Z</time>
      </trkpt>
      <trkpt lat="59.5157791" lon="17.8272984">
        <ele>29.6</ele>
        <time>2013-10-13T12:27:23Z</time>
      </trkpt>
      <trkpt lat="59.5158475" lon="17.8272261">
        <ele>28.8</ele>
        <time>2013-10-13T12:27:28Z</time>
      </trkpt>
      <trkpt lat="59.5160197" lon="17.8270978">
        <ele>28.4</ele>
        <time>2013-10-13T12:27:35Z</time>
      </trkpt>
      <trkpt lat="59.516123" lon="17.826939">
        <ele>28.2</ele>
        <time>2013-10-13T12:27:42Z</time>
      </trkpt>
      <trkpt lat="59.51615" lon="17.8268962">
        <ele>28</ele>
        <time>2013-10-13T12:27:46Z</time>
      </trkpt>
      <trkpt lat="59.5162123" lon="17.8267736">
        <ele>28</ele>
        <time>2013-10-13T12:27:52Z</time>
      </trkpt>
      <trkpt lat="59.5162627" lon="17.8267161">
        <ele>28.4</ele>
        <time>2013-10-13T12:27:57Z</time>
      </trkpt>
      <trkpt lat="59.5162936" lon="17.8266954">
        <ele>28.4</ele>
        <time>2013-10-13T12:28:00Z</time>
      </trkpt>
      <trkpt lat="59.5163183" lon="17.8266688">
        <ele>28.8</ele>
        <time>2013-10-13T12:28:03Z</time>
      </trkpt>
      <trkpt lat="59.5163157" lon="17.8266535">
        <ele>29</ele>
        <time>2013-10-13T12:28:05Z</time>
      </trkpt>
      <trkpt lat="59.5163625" lon="17.8266206">
        <ele>29.2</ele>
        <time>2013-10-13T12:28:10Z</time>
      </trkpt>
      <trkpt lat="59.5164403" lon="17.8265542">
        <ele>29.4</ele>
        <time>2013-10-13T12:28:16Z</time>
      </trkpt>
      <trkpt lat="59.5165031" lon="17.8264919">
        <ele>29.2</ele>
        <time>2013-10-13T12:28:22Z</time>
      </trkpt>
      <trkpt lat="59.5165252" lon="17.8265368">
        <ele>29.2</ele>
        <time>2013-10-13T12:28:27Z</time>
      </trkpt>
      <trkpt lat="59.5165699" lon="17.8265995">
        <ele>29.2</ele>
        <time>2013-10-13T12:28:30Z</time>
      </trkpt>
      <trkpt lat="59.5165887" lon="17.8266263">
        <ele>29.2</ele>
        <time>2013-10-13T12:28:33Z</time>
      </trkpt>
      <trkpt lat="59.5166664" lon="17.8267608">
        <ele>28.8</ele>
        <time>2013-10-13T12:28:39Z</time>
      </trkpt>
      <trkpt lat="59.5167511" lon="17.8268669">
        <ele>28.6</ele>
        <time>2013-10-13T12:28:43Z</time>
      </trkpt>
      <trkpt lat="59.516795" lon="17.8269343">
        <ele>28.4</ele>
        <time>2013-10-13T12:28:45Z</time>
      </trkpt>
      <trkpt lat="59.5168121" lon="17.8270016">
        <ele>28.2</ele>
        <time>2013-10-13T12:28:47Z</time>
      </trkpt>
      <trkpt lat="59.5168628" lon="17.827134">
        <ele>28</ele>
        <time>2013-10-13T12:28:51Z</time>
      </trkpt>
      <trkpt lat="59.5168675" lon="17.8271725">
        <ele>27.8</ele>
        <time>2013-10-13T12:28:53Z</time>
      </trkpt>
      <trkpt lat="59.5169212" lon="17.8272758">
        <ele>27.2</ele>
        <time>2013-10-13T12:28:57Z</time>
      </trkpt>
      <trkpt lat="59.5169305" lon="17.8273181">
        <ele>27</ele>
        <time>2013-10-13T12:28:59Z</time>
      </trkpt>
      <trkpt lat="59.5169813" lon="17.8274064">
        <ele>26.6</ele>
        <time>2013-10-13T12:29:03Z</time>
      </trkpt>
      <trkpt lat="59.5170793" lon="17.8273801">
        <ele>26</ele>
        <time>2013-10-13T12:29:09Z</time>
      </trkpt>
      <trkpt lat="59.5171308" lon="17.8273573">
        <ele>25.8</ele>
        <time>2013-10-13T12:29:12Z</time>
      </trkpt>
      <trkpt lat="59.517162" lon="17.8273466">
        <ele>25.4</ele>
        <time>2013-10-13T12:29:15Z</time>
      </trkpt>
      <trkpt lat="59.5172111" lon="17.8273407">
        <ele>24.8</ele>
        <time>2013-10-13T12:29:20Z</time>
      </trkpt>
      <trkpt lat="59.5172308" lon="17.8273559">
        <ele>24.6</ele>
        <time>2013-10-13T12:29:21Z</time>
      </trkpt>
      <trkpt lat="59.517297" lon="17.827358">
        <ele>24</ele>
        <time>2013-10-13T12:29:26Z</time>
      </trkpt>
      <trkpt lat="59.5173693" lon="17.8273975">
        <ele>23.4</ele>
        <time>2013-10-13T12:29:31Z</time>
      </trkpt>
      <trkpt lat="59.5173919" lon="17.8273801">
        <ele>23</ele>
        <time>2013-10-13T12:29:33Z</time>
      </trkpt>
      <trkpt lat="59.517454" lon="17.8273742">
        <ele>22.4</ele>
        <time>2013-10-13T12:29:37Z</time>
      </trkpt>
      <trkpt lat="59.5175151" lon="17.8273758">
        <ele>22</ele>
        <time>2013-10-13T12:29:40Z</time>
      </trkpt>
      <trkpt lat="59.5175296" lon="17.827386">
        <ele>22</ele>
        <time>2013-10-13T12:29:41Z</time>
      </trkpt>
      <trkpt lat="59.5175663" lon="17.8274173">
        <ele>21.8</ele>
        <time>2013-10-13T12:29:43Z</time>
      </trkpt>
      <trkpt lat="59.5176874" lon="17.8275289">
        <ele>21</ele>
        <time>2013-10-13T12:29:50Z</time>
      </trkpt>
      <trkpt lat="59.5177402" lon="17.8277023">
        <ele>20.8</ele>
        <time>2013-10-13T12:29:56Z</time>
      </trkpt>
      <trkpt lat="59.5177452" lon="17.8277314">
        <ele>20.8</ele>
        <time>2013-10-13T12:29:57Z</time>
      </trkpt>
      <trkpt lat="59.5177789" lon="17.8278399">
        <ele>20.6</ele>
        <time>2013-10-13T12:30:01Z</time>
      </trkpt>
      <trkpt lat="59.5178124" lon="17.8279477">
        <ele>20.6</ele>
        <time>2013-10-13T12:30:05Z</time>
      </trkpt>
      <trkpt lat="59.5178217" lon="17.8280071">
        <ele>20.6</ele>
        <time>2013-10-13T12:30:07Z</time>
      </trkpt>
      <trkpt lat="59.5178297" lon="17.8280405">
        <ele>20.6</ele>
        <time>2013-10-13T12:30:08Z</time>
      </trkpt>
      <trkpt lat="59.517856" lon="17.828155">
        <ele>20.6</ele>
        <time>2013-10-13T12:30:12Z</time>
      </trkpt>
      <trkpt lat="59.5178694" lon="17.8282356">
        <ele>20.4</ele>
        <time>2013-10-13T12:30:15Z</time>
      </trkpt>
      <trkpt lat="59.5178819" lon="17.8283581">
        <ele>20.2</ele>
        <time>2013-10-13T12:30:19Z</time>
      </trkpt>
      <trkpt lat="59.5178856" lon="17.8285584">
        <ele>20</ele>
        <time>2013-10-13T12:30:25Z</time>
      </trkpt>
      <trkpt lat="59.5178527" lon="17.8287429">
        <ele>19.4</ele>
        <time>2013-10-13T12:30:31Z</time>
      </trkpt>
      <trkpt lat="59.5178315" lon="17.8287836">
        <ele>19.2</ele>
        <time>2013-10-13T12:30:32Z</time>
      </trkpt>
      <trkpt lat="59.5177815" lon="17.8288778">
        <ele>18.4</ele>
        <time>2013-10-13T12:30:37Z</time>
      </trkpt>
      <trkpt lat="59.5177643" lon="17.8289431">
        <ele>18</ele>
        <time>2013-10-13T12:30:41Z</time>
      </trkpt>
      <trkpt lat="59.5177612" lon="17.8289949">
        <ele>17.8</ele>
        <time>2013-10-13T12:30:43Z</time>
      </trkpt>
      <trkpt lat="59.517744" lon="17.8290923">
        <ele>17.2</ele>
        <time>2013-10-13T12:30:48Z</time>
      </trkpt>
      <trkpt lat="59.5177274" lon="17.8291538">
        <ele>16.8</ele>
        <time>2013-10-13T12:30:51Z</time>
      </trkpt>
      <trkpt lat="59.5177446" lon="17.8292472">
        <ele>16.6</ele>
        <time>2013-10-13T12:30:54Z</time>
      </trkpt>
      <trkpt lat="59.5178082" lon="17.8293619">
        <ele>16.6</ele>
        <time>2013-10-13T12:31:00Z</time>
      </trkpt>
      <trkpt lat="59.5178148" lon="17.829386">
        <ele>16.6</ele>
        <time>2013-10-13T12:31:01Z</time>
      </trkpt>
      <trkpt lat="59.517837" lon="17.8294554">
        <ele>16.6</ele>
        <time>2013-10-13T12:31:04Z</time>
      </trkpt>
      <trkpt lat="59.5178424" lon="17.8294757">
        <ele>16.6</ele>
        <time>2013-10-13T12:31:05Z</time>
      </trkpt>
      <trkpt lat="59.5178981" lon="17.8296431">
        <ele>16.8</ele>
        <time>2013-10-13T12:31:12Z</time>
      </trkpt>
      <trkpt lat="59.5179096" lon="17.8296967">
        <ele>16.6</ele>
        <time>2013-10-13T12:31:14Z</time>
      </trkpt>
      <trkpt lat="59.5179227" lon="17.8297824">
        <ele>16.6</ele>
        <time>2013-10-13T12:31:17Z</time>
      </trkpt>
      <trkpt lat="59.5179639" lon="17.8298651">
        <ele>16.6</ele>
        <time>2013-10-13T12:31:22Z</time>
      </trkpt>
      <trkpt lat="59.5180045" lon="17.82997">
        <ele>16.2</ele>
        <time>2013-10-13T12:31:27Z</time>
      </trkpt>
      <trkpt lat="59.518014" lon="17.8299886">
        <ele>16.2</ele>
        <time>2013-10-13T12:31:29Z</time>
      </trkpt>
      <trkpt lat="59.5180325" lon="17.8300115">
        <ele>16</ele>
        <time>2013-10-13T12:31:31Z</time>
      </trkpt>
      <trkpt lat="59.5180584" lon="17.8300538">
        <ele>16</ele>
        <time>2013-10-13T12:31:33Z</time>
      </trkpt>
      <trkpt lat="59.5180641" lon="17.8301535">
        <ele>15.8</ele>
        <time>2013-10-13T12:31:36Z</time>
      </trkpt>
      <trkpt lat="59.5180531" lon="17.8302321">
        <ele>15.6</ele>
        <time>2013-10-13T12:31:39Z</time>
      </trkpt>
      <trkpt lat="59.5180601" lon="17.8302609">
        <ele>15.6</ele>
        <time>2013-10-13T12:31:40Z</time>
      </trkpt>
      <trkpt lat="59.518102" lon="17.8303692">
        <ele>15.4</ele>
        <time>2013-10-13T12:31:46Z</time>
      </trkpt>
      <trkpt lat="59.5181288" lon="17.8303843">
        <ele>15.2</ele>
        <time>2013-10-13T12:31:47Z</time>
      </trkpt>
      <trkpt lat="59.5182308" lon="17.8304578">
        <ele>15</ele>
        <time>2013-10-13T12:31:52Z</time>
      </trkpt>
      <trkpt lat="59.5183121" lon="17.830449">
        <ele>15</ele>
        <time>2013-10-13T12:31:58Z</time>
      </trkpt>
      <trkpt lat="59.518327" lon="17.8304563">
        <ele>14.8</ele>
        <time>2013-10-13T12:31:59Z</time>
      </trkpt>
      <trkpt lat="59.5183888" lon="17.8305349">
        <ele>14.8</ele>
        <time>2013-10-13T12:32:03Z</time>
      </trkpt>
      <trkpt lat="59.5184706" lon="17.830636">
        <ele>14.4</ele>
        <time>2013-10-13T12:32:09Z</time>
      </trkpt>
      <trkpt lat="59.5185332" lon="17.8307601">
        <ele>14.2</ele>
        <time>2013-10-13T12:32:14Z</time>
      </trkpt>
      <trkpt lat="59.5185915" lon="17.8309196">
        <ele>13.8</ele>
        <time>2013-10-13T12:32:21Z</time>
      </trkpt>
      <trkpt lat="59.5186105" lon="17.8309312">
        <ele>13.6</ele>
        <time>2013-10-13T12:32:23Z</time>
      </trkpt>
      <trkpt lat="59.5186625" lon="17.83094">
        <ele>13.2</ele>
        <time>2013-10-13T12:32:27Z</time>
      </trkpt>
      <trkpt lat="59.5186733" lon="17.8309422">
        <ele>13.2</ele>
        <time>2013-10-13T12:32:28Z</time>
      </trkpt>
      <trkpt lat="59.5186992" lon="17.8309318">
        <ele>13</ele>
        <time>2013-10-13T12:32:31Z</time>
      </trkpt>
      <trkpt lat="59.5187157" lon="17.8308879">
        <ele>12.8</ele>
        <time>2013-10-13T12:32:34Z</time>
      </trkpt>
      <trkpt lat="59.5187789" lon="17.8308134">
        <ele>12.6</ele>
        <time>2013-10-13T12:32:39Z</time>
      </trkpt>
      <trkpt lat="59.5187956" lon="17.8307934">
        <ele>12.6</ele>
        <time>2013-10-13T12:32:40Z</time>
      </trkpt>
      <trkpt lat="59.5188037" lon="17.830768">
        <ele>12.6</ele>
        <time>2013-10-13T12:32:42Z</time>
      </trkpt>
      <trkpt lat="59.5188168" lon="17.8307489">
        <ele>12.4</ele>
        <time>2013-10-13T12:32:44Z</time>
      </trkpt>
      <trkpt lat="59.5188327" lon="17.8307249">
        <ele>12.4</ele>
        <time>2013-10-13T12:32:46Z</time>
      </trkpt>
      <trkpt lat="59.5189106" lon="17.8305515">
        <ele>12.2</ele>
        <time>2013-10-13T12:33:56Z</time>
      </trkpt>
      <trkpt lat="59.5189065" lon="17.8305824">
        <ele>12.2</ele>
        <time>2013-10-13T12:33:58Z</time>
      </trkpt>
      <trkpt lat="59.5188666" lon="17.8306893">
        <ele>12.2</ele>
        <time>2013-10-13T12:34:04Z</time>
      </trkpt>
      <trkpt lat="59.5188622" lon="17.8306986">
        <ele>12</ele>
        <time>2013-10-13T12:34:05Z</time>
      </trkpt>
      <trkpt lat="59.5188024" lon="17.8308246">
        <ele>11.6</ele>
        <time>2013-10-13T12:34:13Z</time>
      </trkpt>
      <trkpt lat="59.5187629" lon="17.8308779">
        <ele>11.4</ele>
        <time>2013-10-13T12:34:17Z</time>
      </trkpt>
      <trkpt lat="59.5187364" lon="17.8308964">
        <ele>11.2</ele>
        <time>2013-10-13T12:34:20Z</time>
      </trkpt>
      <trkpt lat="59.5186771" lon="17.8309328">
        <ele>10.6</ele>
        <time>2013-10-13T12:34:26Z</time>
      </trkpt>
      <trkpt lat="59.5186532" lon="17.8309512">
        <ele>10.6</ele>
        <time>2013-10-13T12:34:28Z</time>
      </trkpt>
      <trkpt lat="59.5186132" lon="17.8310205">
        <ele>10.2</ele>
        <time>2013-10-13T12:34:32Z</time>
      </trkpt>
      <trkpt lat="59.5185863" lon="17.8310713">
        <ele>10</ele>
        <time>2013-10-13T12:34:35Z</time>
      </trkpt>
      <trkpt lat="59.5185676" lon="17.8311121">
        <ele>9.8</ele>
        <time>2013-10-13T12:34:37Z</time>
      </trkpt>
      <trkpt lat="59.5184881" lon="17.8312824">
        <ele>9</ele>
        <time>2013-10-13T12:34:44Z</time>
      </trkpt>
      <trkpt lat="59.5184189" lon="17.8314467">
        <ele>8.2</ele>
        <time>2013-10-13T12:34:52Z</time>
      </trkpt>
      <trkpt lat="59.518411" lon="17.8314657">
        <ele>8.2</ele>
        <time>2013-10-13T12:34:53Z</time>
      </trkpt>
      <trkpt lat="59.5183722" lon="17.8315958">
        <ele>7.4</ele>
        <time>2013-10-13T12:34:59Z</time>
      </trkpt>
      <trkpt lat="59.5183356" lon="17.8318488">
        <ele>6.4</ele>
        <time>2013-10-13T12:35:07Z</time>
      </trkpt>
      <trkpt lat="59.5183044" lon="17.8320247">
        <ele>5.6</ele>
        <time>2013-10-13T12:35:13Z</time>
      </trkpt>
      <trkpt lat="59.5183055" lon="17.8322273">
        <ele>5.4</ele>
        <time>2013-10-13T12:35:20Z</time>
      </trkpt>
      <trkpt lat="59.5183123" lon="17.8323016">
        <ele>5.4</ele>
        <time>2013-10-13T12:35:23Z</time>
      </trkpt>
      <trkpt lat="59.5183078" lon="17.8323179">
        <ele>5.4</ele>
        <time>2013-10-13T12:35:26Z</time>
      </trkpt>
      <trkpt lat="59.5183174" lon="17.8323816">
        <ele>5.4</ele>
        <time>2013-10-13T12:35:30Z</time>
      </trkpt>
      <trkpt lat="59.5183154" lon="17.8323998">
        <ele>5.4</ele>
        <time>2013-10-13T12:35:31Z</time>
      </trkpt>
      <trkpt lat="59.5183153" lon="17.832564">
        <ele>5.2</ele>
        <time>2013-10-13T12:35:38Z</time>
      </trkpt>
      <trkpt lat="59.5183289" lon="17.8327382">
        <ele>5.2</ele>
        <time>2013-10-13T12:35:44Z</time>
      </trkpt>
      <trkpt lat="59.5183317" lon="17.8328791">
        <ele>5.2</ele>
        <time>2013-10-13T12:35:49Z</time>
      </trkpt>
      <trkpt lat="59.5183353" lon="17.8329046">
        <ele>5.4</ele>
        <time>2013-10-13T12:35:50Z</time>
      </trkpt>
      <trkpt lat="59.5183354" lon="17.8330441">
        <ele>6</ele>
        <time>2013-10-13T12:35:55Z</time>
      </trkpt>
      <trkpt lat="59.5183373" lon="17.8330744">
        <ele>6.2</ele>
        <time>2013-10-13T12:35:56Z</time>
      </trkpt>
      <trkpt lat="59.5183651" lon="17.8332944">
        <ele>7.4</ele>
        <time>2013-10-13T12:36:03Z</time>
      </trkpt>
      <trkpt lat="59.5183593" lon="17.8333122">
        <ele>7.4</ele>
        <time>2013-10-13T12:36:04Z</time>
      </trkpt>
      <trkpt lat="59.518347" lon="17.8333612">
        <ele>7.8</ele>
        <time>2013-10-13T12:36:07Z</time>
      </trkpt>
      <trkpt lat="59.5183387" lon="17.8334265">
        <ele>8</ele>
        <time>2013-10-13T12:36:11Z</time>
      </trkpt>
      <trkpt lat="59.5183435" lon="17.8334362">
        <ele>8</ele>
        <time>2013-10-13T12:36:12Z</time>
      </trkpt>
      <trkpt lat="59.5183663" lon="17.8334959">
        <ele>8</ele>
        <time>2013-10-13T12:36:16Z</time>
      </trkpt>
      <trkpt lat="59.5183733" lon="17.8334972">
        <ele>8.2</ele>
        <time>2013-10-13T12:36:17Z</time>
      </trkpt>
      <trkpt lat="59.5184205" lon="17.8335343">
        <ele>8.2</ele>
        <time>2013-10-13T12:36:21Z</time>
      </trkpt>
      <trkpt lat="59.518475" lon="17.833566">
        <ele>8.2</ele>
        <time>2013-10-13T12:36:26Z</time>
      </trkpt>
      <trkpt lat="59.5185176" lon="17.8336">
        <ele>8.6</ele>
        <time>2013-10-13T12:36:30Z</time>
      </trkpt>
      <trkpt lat="59.5185481" lon="17.8336166">
        <ele>8.6</ele>
        <time>2013-10-13T12:36:32Z</time>
      </trkpt>
      <trkpt lat="59.5186092" lon="17.8336848">
        <ele>8.4</ele>
        <time>2013-10-13T12:36:37Z</time>
      </trkpt>
      <trkpt lat="59.5186751" lon="17.8338142">
        <ele>8.4</ele>
        <time>2013-10-13T12:36:44Z</time>
      </trkpt>
      <trkpt lat="59.5186907" lon="17.8339548">
        <ele>8.4</ele>
        <time>2013-10-13T12:36:49Z</time>
      </trkpt>
      <trkpt lat="59.5187218" lon="17.8341227">
        <ele>8.2</ele>
        <time>2013-10-13T12:36:55Z</time>
      </trkpt>
      <trkpt lat="59.518737" lon="17.8343076">
        <ele>8.4</ele>
        <time>2013-10-13T12:36:59Z</time>
      </trkpt>
      <trkpt lat="59.5187252" lon="17.8343918">
        <ele>9</ele>
        <time>2013-10-13T12:37:02Z</time>
      </trkpt>
      <trkpt lat="59.51873" lon="17.8344514">
        <ele>9</ele>
        <time>2013-10-13T12:37:04Z</time>
      </trkpt>
      <trkpt lat="59.5187532" lon="17.8345965">
        <ele>10.2</ele>
        <time>2013-10-13T12:37:09Z</time>
      </trkpt>
      <trkpt lat="59.5187541" lon="17.8346253">
        <ele>10.4</ele>
        <time>2013-10-13T12:37:10Z</time>
      </trkpt>
      <trkpt lat="59.518769" lon="17.8347393">
        <ele>11.4</ele>
        <time>2013-10-13T12:37:13Z</time>
      </trkpt>
      <trkpt lat="59.5187708" lon="17.8348098">
        <ele>12.2</ele>
        <time>2013-10-13T12:37:15Z</time>
      </trkpt>
      <trkpt lat="59.5187563" lon="17.8348366">
        <ele>12.8</ele>
        <time>2013-10-13T12:37:16Z</time>
      </trkpt>
      <trkpt lat="59.5187161" lon="17.834924">
        <ele>13.8</ele>
        <time>2013-10-13T12:37:20Z</time>
      </trkpt>
      <trkpt lat="59.5187099" lon="17.8349367">
        <ele>13.8</ele>
        <time>2013-10-13T12:37:21Z</time>
      </trkpt>
      <trkpt lat="59.5187012" lon="17.8349595">
        <ele>14</ele>
        <time>2013-10-13T12:37:22Z</time>
      </trkpt>
      <trkpt lat="59.5186374" lon="17.8350179">
        <ele>14.4</ele>
        <time>2013-10-13T12:37:27Z</time>
      </trkpt>
      <trkpt lat="59.5186291" lon="17.835037">
        <ele>14.6</ele>
        <time>2013-10-13T12:37:28Z</time>
      </trkpt>
      <trkpt lat="59.5186041" lon="17.8350388">
        <ele>14.8</ele>
        <time>2013-10-13T12:37:30Z</time>
      </trkpt>
      <trkpt lat="59.5185949" lon="17.8350422">
        <ele>15</ele>
        <time>2013-10-13T12:37:31Z</time>
      </trkpt>
      <trkpt lat="59.5184869" lon="17.8350069">
        <ele>14.8</ele>
        <time>2013-10-13T12:37:41Z</time>
      </trkpt>
      <trkpt lat="59.5184397" lon="17.8350016">
        <ele>15.2</ele>
        <time>2013-10-13T12:37:45Z</time>
      </trkpt>
      <trkpt lat="59.5184187" lon="17.834992">
        <ele>15.2</ele>
        <time>2013-10-13T12:37:47Z</time>
      </trkpt>
      <trkpt lat="59.518401" lon="17.8349865">
        <ele>15.2</ele>
        <time>2013-10-13T12:37:48Z</time>
      </trkpt>
      <trkpt lat="59.5183272" lon="17.834955">
        <ele>15.2</ele>
        <time>2013-10-13T12:37:52Z</time>
      </trkpt>
      <trkpt lat="59.5183115" lon="17.8349459">
        <ele>15.2</ele>
        <time>2013-10-13T12:37:53Z</time>
      </trkpt>
      <trkpt lat="59.5182666" lon="17.8349358">
        <ele>15.4</ele>
        <time>2013-10-13T12:37:57Z</time>
      </trkpt>
      <trkpt lat="59.5182606" lon="17.8349334">
        <ele>15.4</ele>
        <time>2013-10-13T12:37:58Z</time>
      </trkpt>
      <trkpt lat="59.5182203" lon="17.834946">
        <ele>15.6</ele>
        <time>2013-10-13T12:38:01Z</time>
      </trkpt>
      <trkpt lat="59.5181873" lon="17.8349589">
        <ele>15.8</ele>
        <time>2013-10-13T12:38:03Z</time>
      </trkpt>
      <trkpt lat="59.5181326" lon="17.8349888">
        <ele>15.8</ele>
        <time>2013-10-13T12:38:08Z</time>
      </trkpt>
      <trkpt lat="59.518124" lon="17.8349912">
        <ele>15.8</ele>
        <time>2013-10-13T12:38:09Z</time>
      </trkpt>
      <trkpt lat="59.5181089" lon="17.8349943">
        <ele>16</ele>
        <time>2013-10-13T12:38:11Z</time>
      </trkpt>
      <trkpt lat="59.5180717" lon="17.834988">
        <ele>16.2</ele>
        <time>2013-10-13T12:38:14Z</time>
      </trkpt>
      <trkpt lat="59.5180551" lon="17.8349885">
        <ele>16.2</ele>
        <time>2013-10-13T12:38:16Z</time>
      </trkpt>
      <trkpt lat="59.5179942" lon="17.8350015">
        <ele>16</ele>
        <time>2013-10-13T12:38:20Z</time>
      </trkpt>
      <trkpt lat="59.5179859" lon="17.8349978">
        <ele>16</ele>
        <time>2013-10-13T12:38:21Z</time>
      </trkpt>
      <trkpt lat="59.5179423" lon="17.8350059">
        <ele>16</ele>
        <time>2013-10-13T12:38:26Z</time>
      </trkpt>
      <trkpt lat="59.5178648" lon="17.8349518">
        <ele>15.4</ele>
        <time>2013-10-13T12:38:34Z</time>
      </trkpt>
      <trkpt lat="59.5178241" lon="17.8350081">
        <ele>15.2</ele>
        <time>2013-10-13T12:38:39Z</time>
      </trkpt>
      <trkpt lat="59.5177608" lon="17.8350432">
        <ele>15</ele>
        <time>2013-10-13T12:38:43Z</time>
      </trkpt>
      <trkpt lat="59.5177031" lon="17.8350798">
        <ele>14.8</ele>
        <time>2013-10-13T12:38:48Z</time>
      </trkpt>
      <trkpt lat="59.5176132" lon="17.8351554">
        <ele>14.2</ele>
        <time>2013-10-13T12:38:55Z</time>
      </trkpt>
      <trkpt lat="59.5175505" lon="17.8352314">
        <ele>13.8</ele>
        <time>2013-10-13T12:39:00Z</time>
      </trkpt>
      <trkpt lat="59.5175383" lon="17.8352473">
        <ele>13.6</ele>
        <time>2013-10-13T12:39:01Z</time>
      </trkpt>
      <trkpt lat="59.5174311" lon="17.8352517">
        <ele>13.4</ele>
        <time>2013-10-13T12:39:07Z</time>
      </trkpt>
      <trkpt lat="59.5174179" lon="17.8352688">
        <ele>13.4</ele>
        <time>2013-10-13T12:39:08Z</time>
      </trkpt>
      <trkpt lat="59.5172895" lon="17.8353222">
        <ele>13.4</ele>
        <time>2013-10-13T12:39:15Z</time>
      </trkpt>
      <trkpt lat="59.5172282" lon="17.8353726">
        <ele>13.4</ele>
        <time>2013-10-13T12:39:19Z</time>
      </trkpt>
      <trkpt lat="59.5172158" lon="17.8354118">
        <ele>13.4</ele>
        <time>2013-10-13T12:39:21Z</time>
      </trkpt>
      <trkpt lat="59.5171336" lon="17.8354885">
        <ele>13.4</ele>
        <time>2013-10-13T12:39:27Z</time>
      </trkpt>
      <trkpt lat="59.517035" lon="17.8356656">
        <ele>13.8</ele>
        <time>2013-10-13T12:39:34Z</time>
      </trkpt>
      <trkpt lat="59.5169999" lon="17.8357437">
        <ele>14.4</ele>
        <time>2013-10-13T12:39:39Z</time>
      </trkpt>
      <trkpt lat="59.5169986" lon="17.8357427">
        <ele>15</ele>
        <time>2013-10-13T12:39:41Z</time>
      </trkpt>
      <trkpt lat="59.5168832" lon="17.8356906">
        <ele>33.4</ele>
        <time>2013-10-13T12:41:12Z</time>
      </trkpt>
      <trkpt lat="59.5168671" lon="17.8357135">
        <ele>33.4</ele>
        <time>2013-10-13T12:41:15Z</time>
      </trkpt>
      <trkpt lat="59.5168163" lon="17.835744">
        <ele>33</ele>
        <time>2013-10-13T12:41:20Z</time>
      </trkpt>
      <trkpt lat="59.5167878" lon="17.8357893">
        <ele>33</ele>
        <time>2013-10-13T12:41:23Z</time>
      </trkpt>
      <trkpt lat="59.5167346" lon="17.8358398">
        <ele>32.8</ele>
        <time>2013-10-13T12:41:27Z</time>
      </trkpt>
      <trkpt lat="59.5166167" lon="17.835822">
        <ele>32.2</ele>
        <time>2013-10-13T12:41:35Z</time>
      </trkpt>
      <trkpt lat="59.5165081" lon="17.8358328">
        <ele>32</ele>
        <time>2013-10-13T12:41:43Z</time>
      </trkpt>
      <trkpt lat="59.5163688" lon="17.835859">
        <ele>31.4</ele>
        <time>2013-10-13T12:41:52Z</time>
      </trkpt>
      <trkpt lat="59.5162263" lon="17.8358311">
        <ele>31.2</ele>
        <time>2013-10-13T12:42:01Z</time>
      </trkpt>
      <trkpt lat="59.5161269" lon="17.8357886">
        <ele>31</ele>
        <time>2013-10-13T12:42:08Z</time>
      </trkpt>
      <trkpt lat="59.5160351" lon="17.8357451">
        <ele>30.6</ele>
        <time>2013-10-13T12:42:15Z</time>
      </trkpt>
      <trkpt lat="59.5159735" lon="17.8357459">
        <ele>30.2</ele>
        <time>2013-10-13T12:42:21Z</time>
      </trkpt>
      <trkpt lat="59.5159511" lon="17.8357912">
        <ele>30</ele>
        <time>2013-10-13T12:42:27Z</time>
      </trkpt>
      <trkpt lat="59.5159314" lon="17.8358168">
        <ele>30</ele>
        <time>2013-10-13T12:42:29Z</time>
      </trkpt>
      <trkpt lat="59.5158998" lon="17.8358328">
        <ele>29.8</ele>
        <time>2013-10-13T12:42:31Z</time>
      </trkpt>
      <trkpt lat="59.5158458" lon="17.8358337">
        <ele>29.8</ele>
        <time>2013-10-13T12:42:35Z</time>
      </trkpt>
      <trkpt lat="59.5158392" lon="17.8358185">
        <ele>29.8</ele>
        <time>2013-10-13T12:42:36Z</time>
      </trkpt>
      <trkpt lat="59.515824" lon="17.8356721">
        <ele>29.8</ele>
        <time>2013-10-13T12:42:41Z</time>
      </trkpt>
      <trkpt lat="59.5157941" lon="17.8355622">
        <ele>29.6</ele>
        <time>2013-10-13T12:42:45Z</time>
      </trkpt>
      <trkpt lat="59.5157274" lon="17.8353561">
        <ele>29.6</ele>
        <time>2013-10-13T12:42:53Z</time>
      </trkpt>
      <trkpt lat="59.5157108" lon="17.8352384">
        <ele>29.6</ele>
        <time>2013-10-13T12:42:58Z</time>
      </trkpt>
      <trkpt lat="59.5156918" lon="17.8350789">
        <ele>29.4</ele>
        <time>2013-10-13T12:43:05Z</time>
      </trkpt>
      <trkpt lat="59.5156939" lon="17.8350457">
        <ele>29.4</ele>
        <time>2013-10-13T12:43:06Z</time>
      </trkpt>
      <trkpt lat="59.5156622" lon="17.834944">
        <ele>29.2</ele>
        <time>2013-10-13T12:43:10Z</time>
      </trkpt>
      <trkpt lat="59.5156567" lon="17.8349213">
        <ele>29.2</ele>
        <time>2013-10-13T12:43:11Z</time>
      </trkpt>
      <trkpt lat="59.5156193" lon="17.8348629">
        <ele>29</ele>
        <time>2013-10-13T12:43:14Z</time>
      </trkpt>
      <trkpt lat="59.5156022" lon="17.8348111">
        <ele>29</ele>
        <time>2013-10-13T12:43:17Z</time>
      </trkpt>
      <trkpt lat="59.515522" lon="17.8347032">
        <ele>28.6</ele>
        <time>2013-10-13T12:43:24Z</time>
      </trkpt>
      <trkpt lat="59.5154425" lon="17.8346101">
        <ele>28.2</ele>
        <time>2013-10-13T12:43:31Z</time>
      </trkpt>
      <trkpt lat="59.5153766" lon="17.8345155">
        <ele>28</ele>
        <time>2013-10-13T12:43:37Z</time>
      </trkpt>
      <trkpt lat="59.5152797" lon="17.8343867">
        <ele>28</ele>
        <time>2013-10-13T12:43:42Z</time>
      </trkpt>
      <trkpt lat="59.5151107" lon="17.8342179">
        <ele>28</ele>
        <time>2013-10-13T12:43:51Z</time>
      </trkpt>
      <trkpt lat="59.5150188" lon="17.8341622">
        <ele>28.8</ele>
        <time>2013-10-13T12:43:58Z</time>
      </trkpt>
      <trkpt lat="59.5149147" lon="17.8340734">
        <ele>29.8</ele>
        <time>2013-10-13T12:44:06Z</time>
      </trkpt>
      <trkpt lat="59.5149072" lon="17.8340569">
        <ele>29.8</ele>
        <time>2013-10-13T12:44:07Z</time>
      </trkpt>
      <trkpt lat="59.5148701" lon="17.8339697">
        <ele>29.8</ele>
        <time>2013-10-13T12:44:12Z</time>
      </trkpt>
      <trkpt lat="59.5147649" lon="17.8337953">
        <ele>30.4</ele>
        <time>2013-10-13T12:44:20Z</time>
      </trkpt>
      <trkpt lat="59.5147094" lon="17.8337224">
        <ele>30.6</ele>
        <time>2013-10-13T12:44:25Z</time>
      </trkpt>
      <trkpt lat="59.5146936" lon="17.833707">
        <ele>30.8</ele>
        <time>2013-10-13T12:44:26Z</time>
      </trkpt>
      <trkpt lat="59.5146288" lon="17.8336305">
        <ele>31.4</ele>
        <time>2013-10-13T12:44:31Z</time>
      </trkpt>
      <trkpt lat="59.5146163" lon="17.8336166">
        <ele>31.4</ele>
        <time>2013-10-13T12:44:32Z</time>
      </trkpt>
      <trkpt lat="59.5145679" lon="17.833541">
        <ele>31.8</ele>
        <time>2013-10-13T12:44:36Z</time>
      </trkpt>
      <trkpt lat="59.5145118" lon="17.8334488">
        <ele>32.2</ele>
        <time>2013-10-13T12:44:42Z</time>
      </trkpt>
      <trkpt lat="59.514502" lon="17.8334349">
        <ele>32.2</ele>
        <time>2013-10-13T12:44:43Z</time>
      </trkpt>
      <trkpt lat="59.5144862" lon="17.8333555">
        <ele>32.2</ele>
        <time>2013-10-13T12:44:47Z</time>
      </trkpt>
      <trkpt lat="59.5144811" lon="17.833341">
        <ele>32.2</ele>
        <time>2013-10-13T12:44:48Z</time>
      </trkpt>
      <trkpt lat="59.5144411" lon="17.8332221">
        <ele>32.8</ele>
        <time>2013-10-13T12:44:52Z</time>
      </trkpt>
      <trkpt lat="59.5144306" lon="17.8332044">
        <ele>33</ele>
        <time>2013-10-13T12:44:53Z</time>
      </trkpt>
      <trkpt lat="59.5143562" lon="17.8330539">
        <ele>34</ele>
        <time>2013-10-13T12:44:59Z</time>
      </trkpt>
      <trkpt lat="59.5142702" lon="17.8328969">
        <ele>34.8</ele>
        <time>2013-10-13T12:45:05Z</time>
      </trkpt>
      <trkpt lat="59.5141933" lon="17.8327442">
        <ele>35.4</ele>
        <time>2013-10-13T12:45:13Z</time>
      </trkpt>
      <trkpt lat="59.5141749" lon="17.8326848">
        <ele>35.2</ele>
        <time>2013-10-13T12:45:16Z</time>
      </trkpt>
      <trkpt lat="59.5141361" lon="17.8326217">
        <ele>35</ele>
        <time>2013-10-13T12:45:19Z</time>
      </trkpt>
      <trkpt lat="59.5140614" lon="17.8324832">
        <ele>34.8</ele>
        <time>2013-10-13T12:45:25Z</time>
      </trkpt>
      <trkpt lat="59.5139806" lon="17.8323231">
        <ele>34.6</ele>
        <time>2013-10-13T12:45:32Z</time>
      </trkpt>
      <trkpt lat="59.5139046" lon="17.8321511">
        <ele>34.4</ele>
        <time>2013-10-13T12:45:40Z</time>
      </trkpt>
      <trkpt lat="59.5138159" lon="17.8319434">
        <ele>34.4</ele>
        <time>2013-10-13T12:45:47Z</time>
      </trkpt>
      <trkpt lat="59.5137887" lon="17.8317643">
        <ele>34.2</ele>
        <time>2013-10-13T12:45:53Z</time>
      </trkpt>
      <trkpt lat="59.5137755" lon="17.8315599">
        <ele>33.8</ele>
        <time>2013-10-13T12:45:59Z</time>
      </trkpt>
      <trkpt lat="59.5137796" lon="17.8314954">
        <ele>33.8</ele>
        <time>2013-10-13T12:46:01Z</time>
      </trkpt>
      <trkpt lat="59.5137805" lon="17.8314021">
        <ele>33.6</ele>
        <time>2013-10-13T12:46:04Z</time>
      </trkpt>
      <trkpt lat="59.5137817" lon="17.8312431">
        <ele>33.2</ele>
        <time>2013-10-13T12:46:09Z</time>
      </trkpt>
      <trkpt lat="59.5137838" lon="17.831219">
        <ele>33.2</ele>
        <time>2013-10-13T12:46:10Z</time>
      </trkpt>
      <trkpt lat="59.51377" lon="17.8310781">
        <ele>33</ele>
        <time>2013-10-13T12:46:14Z</time>
      </trkpt>
      <trkpt lat="59.513769" lon="17.8310201">
        <ele>33</ele>
        <time>2013-10-13T12:46:16Z</time>
      </trkpt>
      <trkpt lat="59.5137561" lon="17.8308689">
        <ele>32.8</ele>
        <time>2013-10-13T12:46:21Z</time>
      </trkpt>
      <trkpt lat="59.5137561" lon="17.8308445">
        <ele>32.8</ele>
        <time>2013-10-13T12:46:22Z</time>
      </trkpt>
      <trkpt lat="59.5137626" lon="17.8307308">
        <ele>32.6</ele>
        <time>2013-10-13T12:46:27Z</time>
      </trkpt>
      <trkpt lat="59.5137658" lon="17.8305383">
        <ele>32</ele>
        <time>2013-10-13T12:46:36Z</time>
      </trkpt>
      <trkpt lat="59.5137637" lon="17.8304306">
        <ele>31.6</ele>
        <time>2013-10-13T12:46:41Z</time>
      </trkpt>
      <trkpt lat="59.5137597" lon="17.8304083">
        <ele>31.4</ele>
        <time>2013-10-13T12:46:42Z</time>
      </trkpt>
      <trkpt lat="59.5137264" lon="17.8302392">
        <ele>31</ele>
        <time>2013-10-13T12:46:48Z</time>
      </trkpt>
      <trkpt lat="59.5137153" lon="17.8301969">
        <ele>30.8</ele>
        <time>2013-10-13T12:46:50Z</time>
      </trkpt>
      <trkpt lat="59.5136955" lon="17.8301257">
        <ele>30.4</ele>
        <time>2013-10-13T12:46:53Z</time>
      </trkpt>
      <trkpt lat="59.513687" lon="17.8300887">
        <ele>30.2</ele>
        <time>2013-10-13T12:46:55Z</time>
      </trkpt>
      <trkpt lat="59.5136181" lon="17.8298621">
        <ele>29.8</ele>
        <time>2013-10-13T12:47:01Z</time>
      </trkpt>
      <trkpt lat="59.51361" lon="17.8298351">
        <ele>29.8</ele>
        <time>2013-10-13T12:47:02Z</time>
      </trkpt>
      <trkpt lat="59.513593" lon="17.8297888">
        <ele>29.6</ele>
        <time>2013-10-13T12:47:04Z</time>
      </trkpt>
      <trkpt lat="59.5135668" lon="17.8297192">
        <ele>29.4</ele>
        <time>2013-10-13T12:47:07Z</time>
      </trkpt>
      <trkpt lat="59.5135109" lon="17.829555">
        <ele>29.4</ele>
        <time>2013-10-13T12:47:13Z</time>
      </trkpt>
      <trkpt lat="59.5134707" lon="17.8293276">
        <ele>29.4</ele>
        <time>2013-10-13T12:47:21Z</time>
      </trkpt>
      <trkpt lat="59.5134631" lon="17.8292129">
        <ele>29.2</ele>
        <time>2013-10-13T12:47:25Z</time>
      </trkpt>
      <trkpt lat="59.5134642" lon="17.8291607">
        <ele>29.4</ele>
        <time>2013-10-13T12:47:27Z</time>
      </trkpt>
      <trkpt lat="59.5134623" lon="17.8290713">
        <ele>29.2</ele>
        <time>2013-10-13T12:47:30Z</time>
      </trkpt>
      <trkpt lat="59.5134604" lon="17.8289757">
        <ele>29.2</ele>
        <time>2013-10-13T12:47:34Z</time>
      </trkpt>
      <trkpt lat="59.5134368" lon="17.8287773">
        <ele>29</ele>
        <time>2013-10-13T12:47:41Z</time>
      </trkpt>
      <trkpt lat="59.5134124" lon="17.8285729">
        <ele>29</ele>
        <time>2013-10-13T12:47:48Z</time>
      </trkpt>
      <trkpt lat="59.5133731" lon="17.8282963">
        <ele>30</ele>
        <time>2013-10-13T12:47:57Z</time>
      </trkpt>
      <trkpt lat="59.5133559" lon="17.8281205">
        <ele>31</ele>
        <time>2013-10-13T12:48:04Z</time>
      </trkpt>
      <trkpt lat="59.5133373" lon="17.8279414">
        <ele>32.2</ele>
        <time>2013-10-13T12:48:11Z</time>
      </trkpt>
      <trkpt lat="59.5133024" lon="17.8278123">
        <ele>33</ele>
        <time>2013-10-13T12:48:15Z</time>
      </trkpt>
      <trkpt lat="59.5132889" lon="17.8277338">
        <ele>33.8</ele>
        <time>2013-10-13T12:48:18Z</time>
      </trkpt>
      <trkpt lat="59.5132557" lon="17.8275553">
        <ele>35.4</ele>
        <time>2013-10-13T12:48:25Z</time>
      </trkpt>
      <trkpt lat="59.5132174" lon="17.8274">
        <ele>36.8</ele>
        <time>2013-10-13T12:48:31Z</time>
      </trkpt>
      <trkpt lat="59.5131956" lon="17.8272782">
        <ele>38.2</ele>
        <time>2013-10-13T12:48:37Z</time>
      </trkpt>
      <trkpt lat="59.5131792" lon="17.8270902">
        <ele>40.2</ele>
        <time>2013-10-13T12:48:45Z</time>
      </trkpt>
      <trkpt lat="59.5131031" lon="17.8268772">
        <ele>42</ele>
        <time>2013-10-13T12:48:54Z</time>
      </trkpt>
      <trkpt lat="59.5130151" lon="17.8268228">
        <ele>42.8</ele>
        <time>2013-10-13T12:49:00Z</time>
      </trkpt>
      <trkpt lat="59.5128789" lon="17.8267433">
        <ele>43.4</ele>
        <time>2013-10-13T12:49:09Z</time>
      </trkpt>
      <trkpt lat="59.5128267" lon="17.8267348">
        <ele>43.4</ele>
        <time>2013-10-13T12:49:14Z</time>
      </trkpt>
      <trkpt lat="59.5128005" lon="17.8267195">
        <ele>43.4</ele>
        <time>2013-10-13T12:49:16Z</time>
      </trkpt>
      <trkpt lat="59.5126973" lon="17.8266609">
        <ele>43.2</ele>
        <time>2013-10-13T12:49:23Z</time>
      </trkpt>
      <trkpt lat="59.512689" lon="17.8266594">
        <ele>43.2</ele>
        <time>2013-10-13T12:49:24Z</time>
      </trkpt>
      <trkpt lat="59.5126734" lon="17.8266527">
        <ele>43.2</ele>
        <time>2013-10-13T12:49:25Z</time>
      </trkpt>
      <trkpt lat="59.5126412" lon="17.8266404">
        <ele>43</ele>
        <time>2013-10-13T12:49:27Z</time>
      </trkpt>
      <trkpt lat="59.5125906" lon="17.8266188">
        <ele>42.8</ele>
        <time>2013-10-13T12:49:30Z</time>
      </trkpt>
      <trkpt lat="59.5125467" lon="17.8265955">
        <ele>42.8</ele>
        <time>2013-10-13T12:49:33Z</time>
      </trkpt>
      <trkpt lat="59.512467" lon="17.8265889">
        <ele>42.4</ele>
        <time>2013-10-13T12:49:39Z</time>
      </trkpt>
      <trkpt lat="59.5124306" lon="17.8266019">
        <ele>42.4</ele>
        <time>2013-10-13T12:49:42Z</time>
      </trkpt>
      <trkpt lat="59.5124022" lon="17.8265974">
        <ele>42.2</ele>
        <time>2013-10-13T12:49:44Z</time>
      </trkpt>
      <trkpt lat="59.5123163" lon="17.8266174">
        <ele>42</ele>
        <time>2013-10-13T12:49:50Z</time>
      </trkpt>
      <trkpt lat="59.5122214" lon="17.8266527">
        <ele>41.8</ele>
        <time>2013-10-13T12:49:57Z</time>
      </trkpt>
      <trkpt lat="59.512112" lon="17.8266737">
        <ele>41.4</ele>
        <time>2013-10-13T12:50:04Z</time>
      </trkpt>
      <trkpt lat="59.5120489" lon="17.8266551">
        <ele>41.2</ele>
        <time>2013-10-13T12:50:09Z</time>
      </trkpt>
      <trkpt lat="59.5120366" lon="17.8266483">
        <ele>41.2</ele>
        <time>2013-10-13T12:50:10Z</time>
      </trkpt>
      <trkpt lat="59.5119679" lon="17.8266431">
        <ele>41</ele>
        <time>2013-10-13T12:50:14Z</time>
      </trkpt>
      <trkpt lat="59.5119325" lon="17.8266396">
        <ele>41</ele>
        <time>2013-10-13T12:50:16Z</time>
      </trkpt>
      <trkpt lat="59.5118699" lon="17.8266608">
        <ele>41</ele>
        <time>2013-10-13T12:50:21Z</time>
      </trkpt>
      <trkpt lat="59.511843" lon="17.8266572">
        <ele>41</ele>
        <time>2013-10-13T12:50:23Z</time>
      </trkpt>
      <trkpt lat="59.5117439" lon="17.8266901">
        <ele>41</ele>
        <time>2013-10-13T12:50:30Z</time>
      </trkpt>
      <trkpt lat="59.5116633" lon="17.8266848">
        <ele>41</ele>
        <time>2013-10-13T12:50:36Z</time>
      </trkpt>
      <trkpt lat="59.5115858" lon="17.8266867">
        <ele>40.8</ele>
        <time>2013-10-13T12:50:43Z</time>
      </trkpt>
      <trkpt lat="59.5115293" lon="17.8266549">
        <ele>41.2</ele>
        <time>2013-10-13T12:50:46Z</time>
      </trkpt>
      <trkpt lat="59.5114859" lon="17.8266385">
        <ele>41.4</ele>
        <time>2013-10-13T12:50:48Z</time>
      </trkpt>
      <trkpt lat="59.5114049" lon="17.8266327">
        <ele>41.8</ele>
        <time>2013-10-13T12:50:54Z</time>
      </trkpt>
      <trkpt lat="59.511306" lon="17.8266639">
        <ele>42.2</ele>
        <time>2013-10-13T12:51:00Z</time>
      </trkpt>
      <trkpt lat="59.5112307" lon="17.8266652">
        <ele>42.2</ele>
        <time>2013-10-13T12:51:05Z</time>
      </trkpt>
      <trkpt lat="59.5112051" lon="17.8266886">
        <ele>42.4</ele>
        <time>2013-10-13T12:51:08Z</time>
      </trkpt>
      <trkpt lat="59.5111699" lon="17.826706">
        <ele>42.4</ele>
        <time>2013-10-13T12:51:11Z</time>
      </trkpt>
      <trkpt lat="59.5111621" lon="17.8267131">
        <ele>42.4</ele>
        <time>2013-10-13T12:51:12Z</time>
      </trkpt>
      <trkpt lat="59.5111503" lon="17.8267188">
        <ele>42.6</ele>
        <time>2013-10-13T12:51:13Z</time>
      </trkpt>
      <trkpt lat="59.5110814" lon="17.8267624">
        <ele>42.4</ele>
        <time>2013-10-13T12:51:17Z</time>
      </trkpt>
      <trkpt lat="59.5110145" lon="17.8268003">
        <ele>42.6</ele>
        <time>2013-10-13T12:51:21Z</time>
      </trkpt>
      <trkpt lat="59.5110088" lon="17.8268115">
        <ele>42.8</ele>
        <time>2013-10-13T12:51:22Z</time>
      </trkpt>
      <trkpt lat="59.5109981" lon="17.8268256">
        <ele>42.8</ele>
        <time>2013-10-13T12:51:23Z</time>
      </trkpt>
      <trkpt lat="59.5109011" lon="17.8269013">
        <ele>43.2</ele>
        <time>2013-10-13T12:51:30Z</time>
      </trkpt>
      <trkpt lat="59.5108853" lon="17.8269067">
        <ele>43.2</ele>
        <time>2013-10-13T12:51:31Z</time>
      </trkpt>
      <trkpt lat="59.5108499" lon="17.8269208">
        <ele>43.6</ele>
        <time>2013-10-13T12:51:33Z</time>
      </trkpt>
      <trkpt lat="59.5108229" lon="17.8269308">
        <ele>43.6</ele>
        <time>2013-10-13T12:51:35Z</time>
      </trkpt>
      <trkpt lat="59.5107681" lon="17.8269058">
        <ele>44</ele>
        <time>2013-10-13T12:51:40Z</time>
      </trkpt>
      <trkpt lat="59.5107568" lon="17.8268968">
        <ele>44</ele>
        <time>2013-10-13T12:51:41Z</time>
      </trkpt>
      <trkpt lat="59.5107388" lon="17.8268659">
        <ele>44.2</ele>
        <time>2013-10-13T12:51:43Z</time>
      </trkpt>
      <trkpt lat="59.5107397" lon="17.8267794">
        <ele>44</ele>
        <time>2013-10-13T12:51:46Z</time>
      </trkpt>
      <trkpt lat="59.510725" lon="17.8266351">
        <ele>44</ele>
        <time>2013-10-13T12:51:51Z</time>
      </trkpt>
      <trkpt lat="59.5107252" lon="17.8266075">
        <ele>44</ele>
        <time>2013-10-13T12:51:52Z</time>
      </trkpt>
      <trkpt lat="59.5107194" lon="17.8264579">
        <ele>44.2</ele>
        <time>2013-10-13T12:51:58Z</time>
      </trkpt>
      <trkpt lat="59.5107246" lon="17.8263562">
        <ele>44.4</ele>
        <time>2013-10-13T12:52:02Z</time>
      </trkpt>
      <trkpt lat="59.5107217" lon="17.8262541">
        <ele>45</ele>
        <time>2013-10-13T12:52:05Z</time>
      </trkpt>
      <trkpt lat="59.5107255" lon="17.8261041">
        <ele>45.6</ele>
        <time>2013-10-13T12:52:10Z</time>
      </trkpt>
      <trkpt lat="59.5107199" lon="17.8260777">
        <ele>45.6</ele>
        <time>2013-10-13T12:52:12Z</time>
      </trkpt>
      <trkpt lat="59.5107263" lon="17.8260425">
        <ele>45.8</ele>
        <time>2013-10-13T12:52:13Z</time>
      </trkpt>
      <trkpt lat="59.5107298" lon="17.8259405">
        <ele>46.2</ele>
        <time>2013-10-13T12:52:16Z</time>
      </trkpt>
      <trkpt lat="59.5107466" lon="17.8258556">
        <ele>46.2</ele>
        <time>2013-10-13T12:52:19Z</time>
      </trkpt>
      <trkpt lat="59.5107569" lon="17.8258269">
        <ele>46.2</ele>
        <time>2013-10-13T12:52:20Z</time>
      </trkpt>
      <trkpt lat="59.51075" lon="17.8256506">
        <ele>46.2</ele>
        <time>2013-10-13T12:52:26Z</time>
      </trkpt>
      <trkpt lat="59.5107533" lon="17.8256278">
        <ele>46.2</ele>
        <time>2013-10-13T12:52:27Z</time>
      </trkpt>
      <trkpt lat="59.5107477" lon="17.8255186">
        <ele>46.4</ele>
        <time>2013-10-13T12:52:31Z</time>
      </trkpt>
      <trkpt lat="59.5107445" lon="17.825497">
        <ele>46.4</ele>
        <time>2013-10-13T12:52:32Z</time>
      </trkpt>
      <trkpt lat="59.5107374" lon="17.8253298">
        <ele>46.8</ele>
        <time>2013-10-13T12:52:38Z</time>
      </trkpt>
      <trkpt lat="59.5107397" lon="17.8252799">
        <ele>47</ele>
        <time>2013-10-13T12:52:40Z</time>
      </trkpt>
      <trkpt lat="59.5107404" lon="17.8252242">
        <ele>47.2</ele>
        <time>2013-10-13T12:52:42Z</time>
      </trkpt>
      <trkpt lat="59.5107468" lon="17.8250865">
        <ele>47.4</ele>
        <time>2013-10-13T12:52:47Z</time>
      </trkpt>
      <trkpt lat="59.5107447" lon="17.8249836">
        <ele>47.6</ele>
        <time>2013-10-13T12:52:51Z</time>
      </trkpt>
      <trkpt lat="59.5107472" lon="17.8249331">
        <ele>47.8</ele>
        <time>2013-10-13T12:52:53Z</time>
      </trkpt>
      <trkpt lat="59.510755" lon="17.8247516">
        <ele>48.2</ele>
        <time>2013-10-13T12:53:00Z</time>
      </trkpt>
      <trkpt lat="59.5107405" lon="17.8246973">
        <ele>48.4</ele>
        <time>2013-10-13T12:53:02Z</time>
      </trkpt>
      <trkpt lat="59.5107354" lon="17.8245921">
        <ele>48.6</ele>
        <time>2013-10-13T12:53:06Z</time>
      </trkpt>
      <trkpt lat="59.5107173" lon="17.8244041">
        <ele>49.2</ele>
        <time>2013-10-13T12:53:13Z</time>
      </trkpt>
      <trkpt lat="59.5106911" lon="17.8243229">
        <ele>49.4</ele>
        <time>2013-10-13T12:53:17Z</time>
      </trkpt>
      <trkpt lat="59.5106893" lon="17.8243043">
        <ele>49.6</ele>
        <time>2013-10-13T12:53:18Z</time>
      </trkpt>
      <trkpt lat="59.5106891" lon="17.8242865">
        <ele>49.6</ele>
        <time>2013-10-13T12:53:19Z</time>
      </trkpt>
      <trkpt lat="59.510649" lon="17.8241766">
        <ele>49.8</ele>
        <time>2013-10-13T12:53:22Z</time>
      </trkpt>
      <trkpt lat="59.5106312" lon="17.8241242">
        <ele>50</ele>
        <time>2013-10-13T12:53:24Z</time>
      </trkpt>
      <trkpt lat="59.5106111" lon="17.8240282">
        <ele>50.4</ele>
        <time>2013-10-13T12:53:28Z</time>
      </trkpt>
      <trkpt lat="59.5106136" lon="17.8239489">
        <ele>50.8</ele>
        <time>2013-10-13T12:53:32Z</time>
      </trkpt>
      <trkpt lat="59.5106239" lon="17.8237897">
        <ele>51</ele>
        <time>2013-10-13T12:53:37Z</time>
      </trkpt>
      <trkpt lat="59.5106258" lon="17.8237531">
        <ele>51</ele>
        <time>2013-10-13T12:53:38Z</time>
      </trkpt>
      <trkpt lat="59.5106582" lon="17.8236042">
        <ele>51</ele>
        <time>2013-10-13T12:53:43Z</time>
      </trkpt>
      <trkpt lat="59.510669" lon="17.823551">
        <ele>51</ele>
        <time>2013-10-13T12:53:45Z</time>
      </trkpt>
      <trkpt lat="59.5106767" lon="17.8234233">
        <ele>51</ele>
        <time>2013-10-13T12:53:49Z</time>
      </trkpt>
      <trkpt lat="59.5106926" lon="17.8232296">
        <ele>50.8</ele>
        <time>2013-10-13T12:53:57Z</time>
      </trkpt>
      <trkpt lat="59.5107503" lon="17.8230645">
        <ele>50.8</ele>
        <time>2013-10-13T12:54:04Z</time>
      </trkpt>
      <trkpt lat="59.5108048" lon="17.822832">
        <ele>50.6</ele>
        <time>2013-10-13T12:54:13Z</time>
      </trkpt>
      <trkpt lat="59.5108612" lon="17.822677">
        <ele>50.4</ele>
        <time>2013-10-13T12:54:20Z</time>
      </trkpt>
      <trkpt lat="59.5109162" lon="17.8226125">
        <ele>50.4</ele>
        <time>2013-10-13T12:54:26Z</time>
      </trkpt>
      <trkpt lat="59.5109239" lon="17.8226141">
        <ele>50.4</ele>
        <time>2013-10-13T12:54:27Z</time>
      </trkpt>
      <trkpt lat="59.5109705" lon="17.8226127">
        <ele>50.2</ele>
        <time>2013-10-13T12:54:30Z</time>
      </trkpt>
      <trkpt lat="59.5110323" lon="17.8225644">
        <ele>50.2</ele>
        <time>2013-10-13T12:54:34Z</time>
      </trkpt>
      <trkpt lat="59.5111065" lon="17.8226033">
        <ele>50.2</ele>
        <time>2013-10-13T12:54:40Z</time>
      </trkpt>
      <trkpt lat="59.511181" lon="17.8225917">
        <ele>50.2</ele>
        <time>2013-10-13T12:54:46Z</time>
      </trkpt>
      <trkpt lat="59.5111872" lon="17.8225916">
        <ele>50.4</ele>
        <time>2013-10-13T12:54:47Z</time>
      </trkpt>
      <trkpt lat="59.5112106" lon="17.8225461">
        <ele>50.2</ele>
        <time>2013-10-13T12:54:51Z</time>
      </trkpt>
      <trkpt lat="59.5112299" lon="17.8225145">
        <ele>50.2</ele>
        <time>2013-10-13T12:54:53Z</time>
      </trkpt>
      <trkpt lat="59.5113061" lon="17.8224356">
        <ele>50.2</ele>
        <time>2013-10-13T12:54:59Z</time>
      </trkpt>
      <trkpt lat="59.511365" lon="17.8224625">
        <ele>50</ele>
        <time>2013-10-13T12:55:04Z</time>
      </trkpt>
      <trkpt lat="59.5113758" lon="17.8224654">
        <ele>50</ele>
        <time>2013-10-13T12:55:05Z</time>
      </trkpt>
      <trkpt lat="59.511415" lon="17.82243">
        <ele>49.8</ele>
        <time>2013-10-13T12:55:09Z</time>
      </trkpt>
      <trkpt lat="59.5114654" lon="17.8223747">
        <ele>49.2</ele>
        <time>2013-10-13T12:55:15Z</time>
      </trkpt>
      <trkpt lat="59.5115253" lon="17.8222936">
        <ele>48.2</ele>
        <time>2013-10-13T12:55:21Z</time>
      </trkpt>
      <trkpt lat="59.5116227" lon="17.8222691">
        <ele>47.8</ele>
        <time>2013-10-13T12:55:26Z</time>
      </trkpt>
      <trkpt lat="59.5116338" lon="17.8222617">
        <ele>47.8</ele>
        <time>2013-10-13T12:55:27Z</time>
      </trkpt>
      <trkpt lat="59.5116808" lon="17.8222162">
        <ele>47.4</ele>
        <time>2013-10-13T12:55:31Z</time>
      </trkpt>
      <trkpt lat="59.5117701" lon="17.8220914">
        <ele>47.8</ele>
        <time>2013-10-13T12:55:38Z</time>
      </trkpt>
      <trkpt lat="59.5117786" lon="17.8220676">
        <ele>48</ele>
        <time>2013-10-13T12:55:39Z</time>
      </trkpt>
      <trkpt lat="59.5118241" lon="17.8219307">
        <ele>48.8</ele>
        <time>2013-10-13T12:55:45Z</time>
      </trkpt>
      <trkpt lat="59.511907" lon="17.8218706">
        <ele>50.2</ele>
        <time>2013-10-13T12:55:51Z</time>
      </trkpt>
      <trkpt lat="59.5119291" lon="17.8217645">
        <ele>51</ele>
        <time>2013-10-13T12:55:56Z</time>
      </trkpt>
      <trkpt lat="59.5119418" lon="17.8217422">
        <ele>51.4</ele>
        <time>2013-10-13T12:55:58Z</time>
      </trkpt>
      <trkpt lat="59.5119676" lon="17.8217121">
        <ele>52</ele>
        <time>2013-10-13T12:56:04Z</time>
      </trkpt>
      <trkpt lat="59.511955" lon="17.8217582">
        <ele>52.4</ele>
        <time>2013-10-13T12:56:07Z</time>
      </trkpt>
      <trkpt lat="59.5119413" lon="17.8217826">
        <ele>52.4</ele>
        <time>2013-10-13T12:56:09Z</time>
      </trkpt>
      <trkpt lat="59.5119287" lon="17.8217933">
        <ele>52.6</ele>
        <time>2013-10-13T12:56:11Z</time>
      </trkpt>
      <trkpt lat="59.5119123" lon="17.8217908">
        <ele>52.6</ele>
        <time>2013-10-13T12:56:13Z</time>
      </trkpt>
      <trkpt lat="59.5119056" lon="17.8217838">
        <ele>52.6</ele>
        <time>2013-10-13T12:56:14Z</time>
      </trkpt>
      <trkpt lat="59.5118799" lon="17.8217558">
        <ele>53</ele>
        <time>2013-10-13T12:56:18Z</time>
      </trkpt>
      <trkpt lat="59.5118278" lon="17.8215839">
        <ele>53.6</ele>
        <time>2013-10-13T12:56:26Z</time>
      </trkpt>
      <trkpt lat="59.5118037" lon="17.8215011">
        <ele>53.8</ele>
        <time>2013-10-13T12:56:31Z</time>
      </trkpt>
      <trkpt lat="59.5117967" lon="17.8214905">
        <ele>53.8</ele>
        <time>2013-10-13T12:56:32Z</time>
      </trkpt>
      <trkpt lat="59.51179" lon="17.8214162">
        <ele>53.8</ele>
        <time>2013-10-13T12:56:35Z</time>
      </trkpt>
      <trkpt lat="59.5117846" lon="17.8213699">
        <ele>53.8</ele>
        <time>2013-10-13T12:56:37Z</time>
      </trkpt>
      <trkpt lat="59.5117259" lon="17.8212492">
        <ele>53.6</ele>
        <time>2013-10-13T12:56:43Z</time>
      </trkpt>
      <trkpt lat="59.5117204" lon="17.8212367">
        <ele>53.6</ele>
        <time>2013-10-13T12:56:44Z</time>
      </trkpt>
      <trkpt lat="59.5116824" lon="17.8212248">
        <ele>53.4</ele>
        <time>2013-10-13T12:56:48Z</time>
      </trkpt>
      <trkpt lat="59.511659" lon="17.8211987">
        <ele>53.2</ele>
        <time>2013-10-13T12:56:50Z</time>
      </trkpt>
      <trkpt lat="59.5116113" lon="17.8211465">
        <ele>52.6</ele>
        <time>2013-10-13T12:56:55Z</time>
      </trkpt>
      <trkpt lat="59.5116029" lon="17.8211392">
        <ele>52.4</ele>
        <time>2013-10-13T12:56:56Z</time>
      </trkpt>
      <trkpt lat="59.5115787" lon="17.8211405">
        <ele>52.2</ele>
        <time>2013-10-13T12:56:58Z</time>
      </trkpt>
      <trkpt lat="59.5115493" lon="17.8211332">
        <ele>51.8</ele>
        <time>2013-10-13T12:57:01Z</time>
      </trkpt>
      <trkpt lat="59.511471" lon="17.8211312">
        <ele>51.2</ele>
        <time>2013-10-13T12:57:07Z</time>
      </trkpt>
      <trkpt lat="59.5113767" lon="17.8210873">
        <ele>50.4</ele>
        <time>2013-10-13T12:57:13Z</time>
      </trkpt>
      <trkpt lat="59.5112903" lon="17.8210074">
        <ele>49.6</ele>
        <time>2013-10-13T12:57:20Z</time>
      </trkpt>
      <trkpt lat="59.5112374" lon="17.8208623">
        <ele>48.8</ele>
        <time>2013-10-13T12:57:26Z</time>
      </trkpt>
      <trkpt lat="59.5112016" lon="17.8207712">
        <ele>48.2</ele>
        <time>2013-10-13T12:57:30Z</time>
      </trkpt>
      <trkpt lat="59.5111731" lon="17.8207292">
        <ele>48</ele>
        <time>2013-10-13T12:57:32Z</time>
      </trkpt>
      <trkpt lat="59.5111339" lon="17.8206936">
        <ele>47.8</ele>
        <time>2013-10-13T12:57:36Z</time>
      </trkpt>
      <trkpt lat="59.5111287" lon="17.8206901">
        <ele>47.6</ele>
        <time>2013-10-13T12:57:37Z</time>
      </trkpt>
      <trkpt lat="59.5110815" lon="17.8206726">
        <ele>47.4</ele>
        <time>2013-10-13T12:57:41Z</time>
      </trkpt>
      <trkpt lat="59.5110655" lon="17.8206726">
        <ele>47.4</ele>
        <time>2013-10-13T12:57:42Z</time>
      </trkpt>
      <trkpt lat="59.5110224" lon="17.8206713">
        <ele>47</ele>
        <time>2013-10-13T12:57:46Z</time>
      </trkpt>
      <trkpt lat="59.5110105" lon="17.8206653">
        <ele>47</ele>
        <time>2013-10-13T12:57:47Z</time>
      </trkpt>
      <trkpt lat="59.5109972" lon="17.8206574">
        <ele>46.8</ele>
        <time>2013-10-13T12:57:48Z</time>
      </trkpt>
      <trkpt lat="59.5109399" lon="17.8205585">
        <ele>46.4</ele>
        <time>2013-10-13T12:57:53Z</time>
      </trkpt>
      <trkpt lat="59.5109232" lon="17.8205046">
        <ele>46</ele>
        <time>2013-10-13T12:57:56Z</time>
      </trkpt>
      <trkpt lat="59.5108925" lon="17.8204287">
        <ele>46</ele>
        <time>2013-10-13T12:57:59Z</time>
      </trkpt>
      <trkpt lat="59.5108845" lon="17.8204089">
        <ele>45.8</ele>
        <time>2013-10-13T12:58:00Z</time>
      </trkpt>
      <trkpt lat="59.5108757" lon="17.8203764">
        <ele>45.6</ele>
        <time>2013-10-13T12:58:02Z</time>
      </trkpt>
      <trkpt lat="59.5108583" lon="17.8203289">
        <ele>45.6</ele>
        <time>2013-10-13T12:58:04Z</time>
      </trkpt>
      <trkpt lat="59.5108183" lon="17.8203404">
        <ele>45.2</ele>
        <time>2013-10-13T12:58:08Z</time>
      </trkpt>
      <trkpt lat="59.5108056" lon="17.8203524">
        <ele>45.2</ele>
        <time>2013-10-13T12:58:09Z</time>
      </trkpt>
      <trkpt lat="59.510776" lon="17.8203559">
        <ele>45</ele>
        <time>2013-10-13T12:58:11Z</time>
      </trkpt>
      <trkpt lat="59.5107114" lon="17.8203399">
        <ele>44.8</ele>
        <time>2013-10-13T12:58:16Z</time>
      </trkpt>
      <trkpt lat="59.5106184" lon="17.8202891">
        <ele>44.4</ele>
        <time>2013-10-13T12:58:23Z</time>
      </trkpt>
      <trkpt lat="59.5106076" lon="17.820283">
        <ele>44.4</ele>
        <time>2013-10-13T12:58:24Z</time>
      </trkpt>
      <trkpt lat="59.5105624" lon="17.8202659">
        <ele>44.2</ele>
        <time>2013-10-13T12:58:28Z</time>
      </trkpt>
      <trkpt lat="59.5105153" lon="17.8201775">
        <ele>43.8</ele>
        <time>2013-10-13T12:58:32Z</time>
      </trkpt>
      <trkpt lat="59.5104941" lon="17.8201435">
        <ele>43.8</ele>
        <time>2013-10-13T12:58:34Z</time>
      </trkpt>
      <trkpt lat="59.5104865" lon="17.8201185">
        <ele>43.6</ele>
        <time>2013-10-13T12:58:35Z</time>
      </trkpt>
      <trkpt lat="59.5104558" lon="17.8200043">
        <ele>43.4</ele>
        <time>2013-10-13T12:58:39Z</time>
      </trkpt>
      <trkpt lat="59.5104552" lon="17.8199784">
        <ele>43.4</ele>
        <time>2013-10-13T12:58:40Z</time>
      </trkpt>
      <trkpt lat="59.5104223" lon="17.8198422">
        <ele>43</ele>
        <time>2013-10-13T12:58:47Z</time>
      </trkpt>
      <trkpt lat="59.5104083" lon="17.8198256">
        <ele>43</ele>
        <time>2013-10-13T12:58:48Z</time>
      </trkpt>
      <trkpt lat="59.510367" lon="17.8197795">
        <ele>43</ele>
        <time>2013-10-13T12:58:52Z</time>
      </trkpt>
      <trkpt lat="59.5103282" lon="17.8197526">
        <ele>43.4</ele>
        <time>2013-10-13T12:58:55Z</time>
      </trkpt>
      <trkpt lat="59.5102712" lon="17.8195905">
        <ele>43.6</ele>
        <time>2013-10-13T12:59:02Z</time>
      </trkpt>
      <trkpt lat="59.5102534" lon="17.8195119">
        <ele>43.6</ele>
        <time>2013-10-13T12:59:05Z</time>
      </trkpt>
      <trkpt lat="59.5102057" lon="17.8194003">
        <ele>43.6</ele>
        <time>2013-10-13T12:59:10Z</time>
      </trkpt>
      <trkpt lat="59.5101805" lon="17.8193384">
        <ele>43.4</ele>
        <time>2013-10-13T12:59:13Z</time>
      </trkpt>
      <trkpt lat="59.5101546" lon="17.8192607">
        <ele>43.4</ele>
        <time>2013-10-13T12:59:16Z</time>
      </trkpt>
      <trkpt lat="59.5101391" lon="17.819119">
        <ele>43.2</ele>
        <time>2013-10-13T12:59:21Z</time>
      </trkpt>
      <trkpt lat="59.5101324" lon="17.8190496">
        <ele>43</ele>
        <time>2013-10-13T12:59:24Z</time>
      </trkpt>
      <trkpt lat="59.5101334" lon="17.8190028">
        <ele>43</ele>
        <time>2013-10-13T12:59:26Z</time>
      </trkpt>
      <trkpt lat="59.5101358" lon="17.8189798">
        <ele>43</ele>
        <time>2013-10-13T12:59:27Z</time>
      </trkpt>
      <trkpt lat="59.5101394" lon="17.8189041">
        <ele>42.8</ele>
        <time>2013-10-13T12:59:30Z</time>
      </trkpt>
      <trkpt lat="59.5101745" lon="17.8187508">
        <ele>42.8</ele>
        <time>2013-10-13T12:59:36Z</time>
      </trkpt>
      <trkpt lat="59.5101724" lon="17.8187052">
        <ele>42.8</ele>
        <time>2013-10-13T12:59:38Z</time>
      </trkpt>
      <trkpt lat="59.5102108" lon="17.8185739">
        <ele>43</ele>
        <time>2013-10-13T12:59:44Z</time>
      </trkpt>
      <trkpt lat="59.5102305" lon="17.818399">
        <ele>43.2</ele>
        <time>2013-10-13T12:59:51Z</time>
      </trkpt>
      <trkpt lat="59.5102624" lon="17.818236">
        <ele>43.4</ele>
        <time>2013-10-13T12:59:58Z</time>
      </trkpt>
      <trkpt lat="59.5102699" lon="17.8180736">
        <ele>43.8</ele>
        <time>2013-10-13T13:00:04Z</time>
      </trkpt>
      <trkpt lat="59.5102604" lon="17.8178898">
        <ele>44.8</ele>
        <time>2013-10-13T13:00:11Z</time>
      </trkpt>
      <trkpt lat="59.5102385" lon="17.8177407">
        <ele>45.2</ele>
        <time>2013-10-13T13:00:16Z</time>
      </trkpt>
      <trkpt lat="59.5102401" lon="17.817708">
        <ele>45</ele>
        <time>2013-10-13T13:00:17Z</time>
      </trkpt>
      <trkpt lat="59.510228" lon="17.8176567">
        <ele>44.8</ele>
        <time>2013-10-13T13:00:19Z</time>
      </trkpt>
      <trkpt lat="59.5102096" lon="17.8175673">
        <ele>45</ele>
        <time>2013-10-13T13:00:23Z</time>
      </trkpt>
      <trkpt lat="59.5101703" lon="17.8174346">
        <ele>44.8</ele>
        <time>2013-10-13T13:00:28Z</time>
      </trkpt>
      <trkpt lat="59.5101682" lon="17.817415">
        <ele>44.8</ele>
        <time>2013-10-13T13:00:29Z</time>
      </trkpt>
      <trkpt lat="59.5101471" lon="17.8173354">
        <ele>44.6</ele>
        <time>2013-10-13T13:00:33Z</time>
      </trkpt>
      <trkpt lat="59.5101451" lon="17.8172949">
        <ele>44.4</ele>
        <time>2013-10-13T13:00:35Z</time>
      </trkpt>
      <trkpt lat="59.5101324" lon="17.8172539">
        <ele>44.4</ele>
        <time>2013-10-13T13:00:38Z</time>
      </trkpt>
      <trkpt lat="59.5101208" lon="17.8172328">
        <ele>44.2</ele>
        <time>2013-10-13T13:00:39Z</time>
      </trkpt>
      <trkpt lat="59.5101037" lon="17.8172033">
        <ele>44.2</ele>
        <time>2013-10-13T13:00:41Z</time>
      </trkpt>
      <trkpt lat="59.5100802" lon="17.8171782">
        <ele>44</ele>
        <time>2013-10-13T13:00:44Z</time>
      </trkpt>
      <trkpt lat="59.5100697" lon="17.817165">
        <ele>44</ele>
        <time>2013-10-13T13:00:45Z</time>
      </trkpt>
      <trkpt lat="59.5100393" lon="17.81706">
        <ele>43.6</ele>
        <time>2013-10-13T13:00:50Z</time>
      </trkpt>
      <trkpt lat="59.5100277" lon="17.8170216">
        <ele>43.4</ele>
        <time>2013-10-13T13:00:52Z</time>
      </trkpt>
      <trkpt lat="59.5100024" lon="17.8169967">
        <ele>43.2</ele>
        <time>2013-10-13T13:00:55Z</time>
      </trkpt>
      <trkpt lat="59.5099376" lon="17.8169589">
        <ele>43.2</ele>
        <time>2013-10-13T13:01:00Z</time>
      </trkpt>
      <trkpt lat="59.5098669" lon="17.8168977">
        <ele>43</ele>
        <time>2013-10-13T13:01:06Z</time>
      </trkpt>
      <trkpt lat="59.5097982" lon="17.8168355">
        <ele>43</ele>
        <time>2013-10-13T13:01:12Z</time>
      </trkpt>
      <trkpt lat="59.5096623" lon="17.8167504">
        <ele>43</ele>
        <time>2013-10-13T13:01:21Z</time>
      </trkpt>
      <trkpt lat="59.5095829" lon="17.8166922">
        <ele>42.8</ele>
        <time>2013-10-13T13:01:26Z</time>
      </trkpt>
      <trkpt lat="59.5095376" lon="17.8166684">
        <ele>42.8</ele>
        <time>2013-10-13T13:01:31Z</time>
      </trkpt>
      <trkpt lat="59.5094733" lon="17.8165607">
        <ele>42.8</ele>
        <time>2013-10-13T13:01:38Z</time>
      </trkpt>
      <trkpt lat="59.5094118" lon="17.8165142">
        <ele>42.8</ele>
        <time>2013-10-13T13:01:42Z</time>
      </trkpt>
      <trkpt lat="59.5093799" lon="17.8164811">
        <ele>43</ele>
        <time>2013-10-13T13:01:45Z</time>
      </trkpt>
      <trkpt lat="59.5093478" lon="17.8164161">
        <ele>43</ele>
        <time>2013-10-13T13:01:48Z</time>
      </trkpt>
      <trkpt lat="59.509318" lon="17.8163528">
        <ele>43.2</ele>
        <time>2013-10-13T13:01:51Z</time>
      </trkpt>
      <trkpt lat="59.5092958" lon="17.8162938">
        <ele>43.2</ele>
        <time>2013-10-13T13:01:54Z</time>
      </trkpt>
      <trkpt lat="59.5092901" lon="17.8162452">
        <ele>43.4</ele>
        <time>2013-10-13T13:01:56Z</time>
      </trkpt>
      <trkpt lat="59.5092696" lon="17.816194">
        <ele>43.6</ele>
        <time>2013-10-13T13:01:58Z</time>
      </trkpt>
      <trkpt lat="59.5092378" lon="17.8161437">
        <ele>43.8</ele>
        <time>2013-10-13T13:02:01Z</time>
      </trkpt>
      <trkpt lat="59.5091891" lon="17.8161077">
        <ele>44.4</ele>
        <time>2013-10-13T13:02:05Z</time>
      </trkpt>
      <trkpt lat="59.5091478" lon="17.8161037">
        <ele>44.8</ele>
        <time>2013-10-13T13:02:07Z</time>
      </trkpt>
      <trkpt lat="59.5090329" lon="17.8160925">
        <ele>47</ele>
        <time>2013-10-13T13:02:14Z</time>
      </trkpt>
      <trkpt lat="59.508969" lon="17.8161148">
        <ele>48</ele>
        <time>2013-10-13T13:02:19Z</time>
      </trkpt>
      <trkpt lat="59.508893" lon="17.8161788">
        <ele>48.4</ele>
        <time>2013-10-13T13:02:26Z</time>
      </trkpt>
      <trkpt lat="59.5088772" lon="17.8162104">
        <ele>48.6</ele>
        <time>2013-10-13T13:02:28Z</time>
      </trkpt>
      <trkpt lat="59.5088691" lon="17.8162497">
        <ele>48.8</ele>
        <time>2013-10-13T13:02:31Z</time>
      </trkpt>
      <trkpt lat="59.5088002" lon="17.816254">
        <ele>49</ele>
        <time>2013-10-13T13:02:36Z</time>
      </trkpt>
      <trkpt lat="59.5087348" lon="17.8162259">
        <ele>49.2</ele>
        <time>2013-10-13T13:02:42Z</time>
      </trkpt>
      <trkpt lat="59.508703" lon="17.8161876">
        <ele>49</ele>
        <time>2013-10-13T13:02:45Z</time>
      </trkpt>
      <trkpt lat="59.5086405" lon="17.8161152">
        <ele>49</ele>
        <time>2013-10-13T13:02:50Z</time>
      </trkpt>
      <trkpt lat="59.5086032" lon="17.8161001">
        <ele>48.8</ele>
        <time>2013-10-13T13:02:53Z</time>
      </trkpt>
      <trkpt lat="59.5085545" lon="17.816087">
        <ele>48.6</ele>
        <time>2013-10-13T13:02:56Z</time>
      </trkpt>
      <trkpt lat="59.5084333" lon="17.8160695">
        <ele>48.4</ele>
        <time>2013-10-13T13:03:03Z</time>
      </trkpt>
      <trkpt lat="59.5084183" lon="17.8160763">
        <ele>48.4</ele>
        <time>2013-10-13T13:03:04Z</time>
      </trkpt>
      <trkpt lat="59.5083074" lon="17.8160323">
        <ele>48.4</ele>
        <time>2013-10-13T13:03:10Z</time>
      </trkpt>
      <trkpt lat="59.5082191" lon="17.8159945">
        <ele>49.2</ele>
        <time>2013-10-13T13:03:16Z</time>
      </trkpt>
      <trkpt lat="59.5081559" lon="17.8160049">
        <ele>49.6</ele>
        <time>2013-10-13T13:03:21Z</time>
      </trkpt>
      <trkpt lat="59.5080292" lon="17.8160226">
        <ele>50.2</ele>
        <time>2013-10-13T13:03:29Z</time>
      </trkpt>
      <trkpt lat="59.5079239" lon="17.816052">
        <ele>50.4</ele>
        <time>2013-10-13T13:03:36Z</time>
      </trkpt>
      <trkpt lat="59.5079127" lon="17.8160457">
        <ele>50.4</ele>
        <time>2013-10-13T13:03:37Z</time>
      </trkpt>
      <trkpt lat="59.5078377" lon="17.8160579">
        <ele>51</ele>
        <time>2013-10-13T13:03:43Z</time>
      </trkpt>
      <trkpt lat="59.5078315" lon="17.8160742">
        <ele>51</ele>
        <time>2013-10-13T13:03:44Z</time>
      </trkpt>
      <trkpt lat="59.5078018" lon="17.8161221">
        <ele>50.8</ele>
        <time>2013-10-13T13:03:48Z</time>
      </trkpt>
      <trkpt lat="59.5077666" lon="17.8161233">
        <ele>50.6</ele>
        <time>2013-10-13T13:03:50Z</time>
      </trkpt>
      <trkpt lat="59.5076775" lon="17.8161068">
        <ele>50.4</ele>
        <time>2013-10-13T13:03:56Z</time>
      </trkpt>
      <trkpt lat="59.5075895" lon="17.8161079">
        <ele>50</ele>
        <time>2013-10-13T13:04:02Z</time>
      </trkpt>
      <trkpt lat="59.5075397" lon="17.8160891">
        <ele>49.6</ele>
        <time>2013-10-13T13:04:07Z</time>
      </trkpt>
      <trkpt lat="59.5074788" lon="17.8161356">
        <ele>49.4</ele>
        <time>2013-10-13T13:04:12Z</time>
      </trkpt>
      <trkpt lat="59.5074361" lon="17.8161636">
        <ele>49</ele>
        <time>2013-10-13T13:04:16Z</time>
      </trkpt>
      <trkpt lat="59.5073809" lon="17.8161365">
        <ele>48.8</ele>
        <time>2013-10-13T13:04:21Z</time>
      </trkpt>
      <trkpt lat="59.5073588" lon="17.8161039">
        <ele>48.6</ele>
        <time>2013-10-13T13:04:23Z</time>
      </trkpt>
      <trkpt lat="59.5073128" lon="17.8160589">
        <ele>48.2</ele>
        <time>2013-10-13T13:04:27Z</time>
      </trkpt>
      <trkpt lat="59.5072571" lon="17.8160019">
        <ele>47.8</ele>
        <time>2013-10-13T13:04:32Z</time>
      </trkpt>
      <trkpt lat="59.5072512" lon="17.8159996">
        <ele>47.6</ele>
        <time>2013-10-13T13:04:33Z</time>
      </trkpt>
      <trkpt lat="59.5072176" lon="17.8159919">
        <ele>47.2</ele>
        <time>2013-10-13T13:04:37Z</time>
      </trkpt>
      <trkpt lat="59.5071711" lon="17.8159792">
        <ele>46.6</ele>
        <time>2013-10-13T13:04:43Z</time>
      </trkpt>
      <trkpt lat="59.5071588" lon="17.8159667">
        <ele>46.4</ele>
        <time>2013-10-13T13:04:44Z</time>
      </trkpt>
      <trkpt lat="59.5071223" lon="17.8159126">
        <ele>46</ele>
        <time>2013-10-13T13:04:48Z</time>
      </trkpt>
      <trkpt lat="59.5071129" lon="17.8159004">
        <ele>45.8</ele>
        <time>2013-10-13T13:04:49Z</time>
      </trkpt>
      <trkpt lat="59.5070377" lon="17.8158237">
        <ele>45.2</ele>
        <time>2013-10-13T13:04:55Z</time>
      </trkpt>
      <trkpt lat="59.5070001" lon="17.8157714">
        <ele>45</ele>
        <time>2013-10-13T13:04:58Z</time>
      </trkpt>
      <trkpt lat="59.5069597" lon="17.8157418">
        <ele>44.8</ele>
        <time>2013-10-13T13:05:01Z</time>
      </trkpt>
      <trkpt lat="59.5069008" lon="17.8156809">
        <ele>44.4</ele>
        <time>2013-10-13T13:05:06Z</time>
      </trkpt>
      <trkpt lat="59.506886" lon="17.8156579">
        <ele>44.2</ele>
        <time>2013-10-13T13:05:07Z</time>
      </trkpt>
      <trkpt lat="59.5068232" lon="17.8156207">
        <ele>44</ele>
        <time>2013-10-13T13:05:12Z</time>
      </trkpt>
      <trkpt lat="59.5068182" lon="17.8156028">
        <ele>43.8</ele>
        <time>2013-10-13T13:05:13Z</time>
      </trkpt>
      <trkpt lat="59.5067601" lon="17.8155282">
        <ele>43.6</ele>
        <time>2013-10-13T13:05:17Z</time>
      </trkpt>
      <trkpt lat="59.5067358" lon="17.815526">
        <ele>43.4</ele>
        <time>2013-10-13T13:05:19Z</time>
      </trkpt>
      <trkpt lat="59.5066992" lon="17.815503">
        <ele>43.2</ele>
        <time>2013-10-13T13:05:22Z</time>
      </trkpt>
      <trkpt lat="59.5066299" lon="17.8154663">
        <ele>43</ele>
        <time>2013-10-13T13:05:27Z</time>
      </trkpt>
      <trkpt lat="59.5066051" lon="17.815474">
        <ele>42.8</ele>
        <time>2013-10-13T13:05:31Z</time>
      </trkpt>
      <trkpt lat="59.506592" lon="17.8154386">
        <ele>42.6</ele>
        <time>2013-10-13T13:05:32Z</time>
      </trkpt>
      <trkpt lat="59.5065489" lon="17.8154239">
        <ele>42.4</ele>
        <time>2013-10-13T13:05:35Z</time>
      </trkpt>
      <trkpt lat="59.5065016" lon="17.8154341">
        <ele>42.2</ele>
        <time>2013-10-13T13:05:40Z</time>
      </trkpt>
      <trkpt lat="59.5064807" lon="17.8154243">
        <ele>42.2</ele>
        <time>2013-10-13T13:05:41Z</time>
      </trkpt>
      <trkpt lat="59.5064352" lon="17.8154403">
        <ele>42.2</ele>
        <time>2013-10-13T13:05:45Z</time>
      </trkpt>
      <trkpt lat="59.5064057" lon="17.8154444">
        <ele>42.2</ele>
        <time>2013-10-13T13:05:47Z</time>
      </trkpt>
      <trkpt lat="59.5063116" lon="17.8154555">
        <ele>42</ele>
        <time>2013-10-13T13:05:53Z</time>
      </trkpt>
      <trkpt lat="59.5062216" lon="17.8154557">
        <ele>41.8</ele>
        <time>2013-10-13T13:05:58Z</time>
      </trkpt>
      <trkpt lat="59.5061537" lon="17.8154577">
        <ele>41.6</ele>
        <time>2013-10-13T13:06:04Z</time>
      </trkpt>
      <trkpt lat="59.5061152" lon="17.8153789">
        <ele>41.4</ele>
        <time>2013-10-13T13:06:08Z</time>
      </trkpt>
      <trkpt lat="59.5061004" lon="17.8153676">
        <ele>41.4</ele>
        <time>2013-10-13T13:06:09Z</time>
      </trkpt>
      <trkpt lat="59.5060344" lon="17.8153117">
        <ele>41.4</ele>
        <time>2013-10-13T13:06:13Z</time>
      </trkpt>
      <trkpt lat="59.5060171" lon="17.8152657">
        <ele>41.2</ele>
        <time>2013-10-13T13:06:14Z</time>
      </trkpt>
      <trkpt lat="59.5059746" lon="17.8151975">
        <ele>41.2</ele>
        <time>2013-10-13T13:06:18Z</time>
      </trkpt>
      <trkpt lat="59.5059609" lon="17.8151796">
        <ele>41.2</ele>
        <time>2013-10-13T13:06:19Z</time>
      </trkpt>
      <trkpt lat="59.505926" lon="17.8150858">
        <ele>41.2</ele>
        <time>2013-10-13T13:06:22Z</time>
      </trkpt>
      <trkpt lat="59.5059161" lon="17.8150562">
        <ele>41.2</ele>
        <time>2013-10-13T13:06:23Z</time>
      </trkpt>
      <trkpt lat="59.5058859" lon="17.8149791">
        <ele>41.6</ele>
        <time>2013-10-13T13:06:29Z</time>
      </trkpt>
      <trkpt lat="59.5058569" lon="17.8148866">
        <ele>41.4</ele>
        <time>2013-10-13T13:06:33Z</time>
      </trkpt>
      <trkpt lat="59.5058476" lon="17.8148312">
        <ele>41.4</ele>
        <time>2013-10-13T13:06:35Z</time>
      </trkpt>
      <trkpt lat="59.5057601" lon="17.8148193">
        <ele>41.8</ele>
        <time>2013-10-13T13:06:41Z</time>
      </trkpt>
      <trkpt lat="59.505735" lon="17.8148503">
        <ele>41.8</ele>
        <time>2013-10-13T13:06:43Z</time>
      </trkpt>
      <trkpt lat="59.5056937" lon="17.8149314">
        <ele>41.6</ele>
        <time>2013-10-13T13:06:47Z</time>
      </trkpt>
      <trkpt lat="59.5056685" lon="17.8149688">
        <ele>41.4</ele>
        <time>2013-10-13T13:06:50Z</time>
      </trkpt>
      <trkpt lat="59.505574" lon="17.8150616">
        <ele>41</ele>
        <time>2013-10-13T13:06:57Z</time>
      </trkpt>
      <trkpt lat="59.5055549" lon="17.8150615">
        <ele>41</ele>
        <time>2013-10-13T13:06:58Z</time>
      </trkpt>
      <trkpt lat="59.5055124" lon="17.8151172">
        <ele>40.6</ele>
        <time>2013-10-13T13:07:02Z</time>
      </trkpt>
      <trkpt lat="59.505448" lon="17.8151601">
        <ele>40</ele>
        <time>2013-10-13T13:07:08Z</time>
      </trkpt>
      <trkpt lat="59.5054061" lon="17.8151216">
        <ele>39.4</ele>
        <time>2013-10-13T13:07:12Z</time>
      </trkpt>
      <trkpt lat="59.5053752" lon="17.8150599">
        <ele>39.2</ele>
        <time>2013-10-13T13:07:15Z</time>
      </trkpt>
      <trkpt lat="59.5053627" lon="17.8150288">
        <ele>39.2</ele>
        <time>2013-10-13T13:07:16Z</time>
      </trkpt>
      <trkpt lat="59.505286" lon="17.814876">
        <ele>38.8</ele>
        <time>2013-10-13T13:07:21Z</time>
      </trkpt>
      <trkpt lat="59.505212" lon="17.8147512">
        <ele>38.4</ele>
        <time>2013-10-13T13:07:28Z</time>
      </trkpt>
      <trkpt lat="59.5052061" lon="17.8146916">
        <ele>38.2</ele>
        <time>2013-10-13T13:07:30Z</time>
      </trkpt>
      <trkpt lat="59.5051782" lon="17.8146061">
        <ele>38</ele>
        <time>2013-10-13T13:07:33Z</time>
      </trkpt>
      <trkpt lat="59.5051215" lon="17.8144151">
        <ele>37.8</ele>
        <time>2013-10-13T13:07:40Z</time>
      </trkpt>
      <trkpt lat="59.5051133" lon="17.8142717">
        <ele>37.6</ele>
        <time>2013-10-13T13:07:45Z</time>
      </trkpt>
      <trkpt lat="59.5051066" lon="17.8142399">
        <ele>37.6</ele>
        <time>2013-10-13T13:07:46Z</time>
      </trkpt>
      <trkpt lat="59.505082" lon="17.8140451">
        <ele>37.2</ele>
        <time>2013-10-13T13:07:53Z</time>
      </trkpt>
      <trkpt lat="59.5050267" lon="17.8138838">
        <ele>36.8</ele>
        <time>2013-10-13T13:07:59Z</time>
      </trkpt>
      <trkpt lat="59.5049542" lon="17.813797">
        <ele>36.4</ele>
        <time>2013-10-13T13:08:05Z</time>
      </trkpt>
      <trkpt lat="59.5048663" lon="17.8136577">
        <ele>36.2</ele>
        <time>2013-10-13T13:08:13Z</time>
      </trkpt>
      <trkpt lat="59.5047811" lon="17.8134971">
        <ele>36.6</ele>
        <time>2013-10-13T13:08:21Z</time>
      </trkpt>
      <trkpt lat="59.504714" lon="17.8133785">
        <ele>37.6</ele>
        <time>2013-10-13T13:08:28Z</time>
      </trkpt>
      <trkpt lat="59.5046296" lon="17.8133171">
        <ele>38.2</ele>
        <time>2013-10-13T13:08:36Z</time>
      </trkpt>
      <trkpt lat="59.5045405" lon="17.8133063">
        <ele>38.2</ele>
        <time>2013-10-13T13:08:44Z</time>
      </trkpt>
      <trkpt lat="59.5044624" lon="17.813312">
        <ele>37.8</ele>
        <time>2013-10-13T13:08:51Z</time>
      </trkpt>
      <trkpt lat="59.5044092" lon="17.8132849">
        <ele>37.6</ele>
        <time>2013-10-13T13:08:56Z</time>
      </trkpt>
      <trkpt lat="59.5042648" lon="17.8132758">
        <ele>37</ele>
        <time>2013-10-13T13:09:06Z</time>
      </trkpt>
      <trkpt lat="59.5041859" lon="17.8132269">
        <ele>36.6</ele>
        <time>2013-10-13T13:09:11Z</time>
      </trkpt>
      <trkpt lat="59.5040769" lon="17.8132774">
        <ele>35.6</ele>
        <time>2013-10-13T13:09:19Z</time>
      </trkpt>
      <trkpt lat="59.5039745" lon="17.8133">
        <ele>35.2</ele>
        <time>2013-10-13T13:09:26Z</time>
      </trkpt>
      <trkpt lat="59.5038574" lon="17.8132148">
        <ele>34.6</ele>
        <time>2013-10-13T13:09:34Z</time>
      </trkpt>
      <trkpt lat="59.5037593" lon="17.8131536">
        <ele>34</ele>
        <time>2013-10-13T13:09:42Z</time>
      </trkpt>
      <trkpt lat="59.5036649" lon="17.8129948">
        <ele>33.6</ele>
        <time>2013-10-13T13:09:50Z</time>
      </trkpt>
      <trkpt lat="59.5035716" lon="17.8128496">
        <ele>33.2</ele>
        <time>2013-10-13T13:09:58Z</time>
      </trkpt>
      <trkpt lat="59.5034961" lon="17.8127024">
        <ele>33</ele>
        <time>2013-10-13T13:10:06Z</time>
      </trkpt>
      <trkpt lat="59.5034243" lon="17.8125493">
        <ele>32.4</ele>
        <time>2013-10-13T13:10:15Z</time>
      </trkpt>
      <trkpt lat="59.503334" lon="17.8123937">
        <ele>31.6</ele>
        <time>2013-10-13T13:10:24Z</time>
      </trkpt>
      <trkpt lat="59.5032415" lon="17.8122643">
        <ele>30.8</ele>
        <time>2013-10-13T13:10:32Z</time>
      </trkpt>
      <trkpt lat="59.5031464" lon="17.8121601">
        <ele>30.4</ele>
        <time>2013-10-13T13:10:39Z</time>
      </trkpt>
      <trkpt lat="59.5030468" lon="17.8120472">
        <ele>29.8</ele>
        <time>2013-10-13T13:10:47Z</time>
      </trkpt>
      <trkpt lat="59.5029715" lon="17.8119659">
        <ele>29.4</ele>
        <time>2013-10-13T13:10:53Z</time>
      </trkpt>
      <trkpt lat="59.5028788" lon="17.8118593">
        <ele>28.8</ele>
        <time>2013-10-13T13:11:01Z</time>
      </trkpt>
      <trkpt lat="59.502812" lon="17.8118018">
        <ele>28.6</ele>
        <time>2013-10-13T13:11:07Z</time>
      </trkpt>
    </trkseg>
  </trk>
</gpx>